Observation data for Palo Duro Canyon State Park Floor on 09/11/2017      Previous  Date  Next       Current Mesonet Observations  Soil Data  Daily Summary Page  Observations in Plain Language
KPD2 110500Z 13004KT 19/11 A3023 RMK A01 T01920106  RH  057%=      5-min Rain = 0
KPD2 110501Z 13004KT 19/11 A3023 RMK A01 T01920106  RH  057%=      5-min Rain = 0
KPD2 110502Z 12005KT 19/11 A3023 RMK A01 T01920106  RH  057%=      5-min Rain = 0
KPD2 110503Z 12005KT 19/11 A3023 RMK A01 T01920106  RH  057%=      5-min Rain = 0
KPD2 110504Z 13004KT 19/11 A3024 RMK A01 T01930105  RH  057%=      5-min Rain = 0
KPD2 110505Z 12004KT 19/11 A3024 RMK A01 T01930105  RH  057%=      5-min Rain = 0
KPD2 110506Z 13004KT 19/11 A3024 RMK A01 T01930105  RH  056%=      5-min Rain = 0
KPD2 110507Z 13005KT 19/10 A3024 RMK A01 T01930104  RH  056%=      5-min Rain = 0
KPD2 110508Z 12005KT 19/10 A3024 RMK A01 T01940104  RH  056%=      5-min Rain = 0
KPD2 110509Z 13004KT 19/11 A3024 RMK A01 T01940105  RH  056%=      5-min Rain = 0
KPD2 110510Z 13005KT 19/10 A3024 RMK A01 T01940104  RH  056%=      5-min Rain = 0
KPD2 110511Z 14004KT 19/10 A3024 RMK A01 T01940104  RH  056%=      5-min Rain = 0
KPD2 110512Z 14005KT 19/10 A3024 RMK A01 T01940104  RH  056%=      5-min Rain = 0
KPD2 110513Z 14004KT 20/10 A3024 RMK A01 T01950104  RH  056%=      5-min Rain = 0
KPD2 110514Z 14004KT 20/11 A3024 RMK A01 T01950105  RH  056%=      5-min Rain = 0
KPD2 110515Z 13004KT 19/11 A3024 RMK A01 T01940105  RH  056%=      5-min Rain = 0
KPD2 110516Z 13004KT 19/11 A3024 RMK A01 T01940105  RH  056%=      5-min Rain = 0
KPD2 110517Z 13004KT 19/11 A3024 RMK A01 T01930105  RH  057%=      5-min Rain = 0
KPD2 110518Z 13005KT 19/11 A3024 RMK A01 T01930105  RH  057%=      5-min Rain = 0
KPD2 110519Z 13004KT 19/11 A3024 RMK A01 T01920105  RH  057%=      5-min Rain = 0
KPD2 110520Z 13003KT 19/11 A3023 RMK A01 T01910105  RH  058%=      5-min Rain = 0
KPD2 110521Z 13003KT 19/11 A3023 RMK A01 T01900105  RH  058%=      5-min Rain = 0
KPD2 110522Z 12004KT 19/11 A3024 RMK A01 T01890105  RH  058%=      5-min Rain = 0
KPD2 110523Z 13004KT 19/10 A3023 RMK A01 T01880104  RH  058%=      5-min Rain = 0
KPD2 110524Z 13004KT 19/10 A3023 RMK A01 T01870104  RH  059%=      5-min Rain = 0
KPD2 110525Z 13004KT 19/10 A3023 RMK A01 T01860104  RH  059%=      5-min Rain = 0
KPD2 110526Z 13004KT 19/10 A3023 RMK A01 T01850104  RH  059%=      5-min Rain = 0
KPD2 110527Z 12004KT 19/10 A3023 RMK A01 T01850104  RH  059%=      5-min Rain = 0
KPD2 110528Z 12004KT 18/10 A3023 RMK A01 T01840103  RH  059%=      5-min Rain = 0
KPD2 110529Z 13005KT 18/10 A3023 RMK A01 T01840103  RH  059%=      5-min Rain = 0
KPD2 110530Z 12005KT 18/10 A3023 RMK A01 T01840103  RH  059%=      5-min Rain = 0
KPD2 110531Z 12005KT 18/10 A3023 RMK A01 T01840104  RH  059%=      5-min Rain = 0
KPD2 110532Z 12004KT 18/10 A3023 RMK A01 T01840104  RH  059%=      5-min Rain = 0
KPD2 110533Z 13005KT 18/10 A3023 RMK A01 T01830103  RH  059%=      5-min Rain = 0
KPD2 110534Z 13005KT 18/10 A3023 RMK A01 T01830103  RH  059%=      5-min Rain = 0
KPD2 110535Z 13004KT 18/10 A3023 RMK A01 T01840103  RH  059%=      5-min Rain = 0
KPD2 110536Z 12004KT 18/10 A3023 RMK A01 T01840102  RH  059%=      5-min Rain = 0
KPD2 110537Z 13005KT 19/10 A3023 RMK A01 T01850102  RH  059%=      5-min Rain = 0
KPD2 110538Z 13005KT 19/10 A3023 RMK A01 T01850102  RH  058%=      5-min Rain = 0
KPD2 110539Z 13005KT 19/10 A3023 RMK A01 T01860101  RH  058%=      5-min Rain = 0
KPD2 110540Z 12005KT 19/10 A3023 RMK A01 T01860101  RH  058%=      5-min Rain = 0
KPD2 110541Z 12005KT 19/10 A3023 RMK A01 T01860100  RH  057%=      5-min Rain = 0
KPD2 110542Z 12005KT 19/10 A3023 RMK A01 T01870100  RH  057%=      5-min Rain = 0
KPD2 110543Z 13005KT 19/10 A3023 RMK A01 T01860099  RH  057%=      5-min Rain = 0
KPD2 110544Z 12005KT 19/10 A3023 RMK A01 T01870100  RH  057%=      5-min Rain = 0
KPD2 110545Z 13005KT 19/10 A3023 RMK A01 T01870099  RH  057%=      5-min Rain = 0
KPD2 110546Z 13005KT 19/10 A3023 RMK A01 T01870099  RH  056%=      5-min Rain = 0
KPD2 110547Z 12005KT 19/10 A3023 RMK A01 T01880099  RH  056%=      5-min Rain = 0
KPD2 110548Z 12005KT 19/10 A3023 RMK A01 T01880099  RH  056%=      5-min Rain = 0
KPD2 110549Z 12005KT 19/10 A3023 RMK A01 T01880098  RH  056%=      5-min Rain = 0
KPD2 110550Z 12006KT 19/10 A3023 RMK A01 T01880098  RH  056%=      5-min Rain = 0
KPD2 110551Z 12005KT 19/10 A3023 RMK A01 T01880098  RH  056%=      5-min Rain = 0
KPD2 110552Z 12005KT 19/10 A3023 RMK A01 T01880098  RH  056%=      5-min Rain = 0
KPD2 110553Z 12005KT 19/10 A3023 RMK A01 T01880098  RH  056%=      5-min Rain = 0
KPD2 110554Z 12005KT 19/10 A3023 RMK A01 T01880098  RH  056%=      5-min Rain = 0
KPD2 110555Z 13005KT 19/10 A3023 RMK A01 T01880097  RH  055%=      5-min Rain = 0
KPD2 110556Z 12005KT 19/10 A3023 RMK A01 T01890097  RH  055%=      5-min Rain = 0
KPD2 110557Z 12005KT 19/10 A3023 RMK A01 T01890098  RH  055%=      5-min Rain = 0
KPD2 110558Z 12005KT 19/10 A3023 RMK A01 T01890097  RH  055%=      5-min Rain = 0
KPD2 110559Z 12005KT 19/10 A3023 RMK A01 T01890097  RH  055%=      5-min Rain = 0
KPD2 110600Z 12005KT 19/10 A3023 RMK A01 T01890097  RH  055%=      5-min Rain = 0
KPD2 110601Z 11005KT 19/10 A3023 RMK A01 T01890097  RH  055%=      5-min Rain = 0
KPD2 110602Z 12005KT 19/10 A3023 RMK A01 T01890098  RH  055%=      5-min Rain = 0
KPD2 110603Z 12005KT 19/10 A3023 RMK A01 T01890097  RH  055%=      5-min Rain = 0
KPD2 110604Z 12004KT 19/10 A3023 RMK A01 T01890098  RH  055%=      5-min Rain = 0
KPD2 110605Z 12004KT 19/10 A3023 RMK A01 T01890098  RH  055%=      5-min Rain = 0
KPD2 110606Z 12004KT 19/10 A3023 RMK A01 T01880097  RH  055%=      5-min Rain = 0
KPD2 110607Z 11004KT 19/10 A3023 RMK A01 T01880097  RH  055%=      5-min Rain = 0
KPD2 110608Z 12004KT 19/10 A3023 RMK A01 T01880097  RH  055%=      5-min Rain = 0
KPD2 110609Z 12004KT 19/10 A3023 RMK A01 T01880097  RH  055%=      5-min Rain = 0
KPD2 110610Z 12004KT 19/10 A3023 RMK A01 T01880097  RH  055%=      5-min Rain = 0
KPD2 110611Z 12004KT 19/10 A3023 RMK A01 T01880097  RH  055%=      5-min Rain = 0
KPD2 110612Z 13004KT 19/10 A3023 RMK A01 T01880097  RH  056%=      5-min Rain = 0
KPD2 110613Z 12004KT 19/10 A3023 RMK A01 T01870097  RH  056%=      5-min Rain = 0
KPD2 110614Z 13004KT 19/10 A3023 RMK A01 T01870097  RH  056%=      5-min Rain = 0
KPD2 110615Z 13004KT 19/10 A3023 RMK A01 T01870097  RH  056%=      5-min Rain = 0
KPD2 110616Z 13004KT 19/10 A3023 RMK A01 T01870097  RH  056%=      5-min Rain = 0
KPD2 110617Z 13004KT 19/10 A3023 RMK A01 T01870096  RH  056%=      5-min Rain = 0
KPD2 110618Z 12004KT 19/10 A3023 RMK A01 T01870097  RH  056%=      5-min Rain = 0
KPD2 110619Z 13003KT 19/10 A3023 RMK A01 T01870097  RH  056%=      5-min Rain = 0
KPD2 110620Z 13003KT 19/10 A3023 RMK A01 T01860097  RH  056%=      5-min Rain = 0
KPD2 110621Z 12004KT 19/10 A3023 RMK A01 T01860097  RH  056%=      5-min Rain = 0
KPD2 110622Z 13003KT 19/10 A3023 RMK A01 T01860097  RH  056%=      5-min Rain = 0
KPD2 110623Z 12004KT 19/10 A3023 RMK A01 T01860097  RH  056%=      5-min Rain = 0
KPD2 110624Z 13004KT 19/10 A3023 RMK A01 T01860097  RH  056%=      5-min Rain = 0
KPD2 110625Z 13004KT 19/10 A3023 RMK A01 T01850096  RH  056%=      5-min Rain = 0
KPD2 110626Z 12004KT 19/10 A3023 RMK A01 T01850097  RH  056%=      5-min Rain = 0
KPD2 110627Z 12002KT 18/10 A3023 RMK A01 T01840096  RH  056%=      5-min Rain = 0
KPD2 110628Z 12003KT 18/10 A3023 RMK A01 T01840096  RH  057%=      5-min Rain = 0
KPD2 110629Z 11002KT 18/10 A3023 RMK A01 T01830096  RH  057%=      5-min Rain = 0
KPD2 110630Z 12004KT 18/10 A3023 RMK A01 T01830096  RH  057%=      5-min Rain = 0
KPD2 110631Z 13003KT 18/10 A3023 RMK A01 T01830096  RH  057%=      5-min Rain = 0
KPD2 110632Z 11003KT 18/10 A3023 RMK A01 T01830096  RH  057%=      5-min Rain = 0
KPD2 110633Z 11003KT 18/10 A3023 RMK A01 T01830096  RH  057%=      5-min Rain = 0
KPD2 110634Z 11002KT 18/10 A3023 RMK A01 T01830096  RH  057%=      5-min Rain = 0
KPD2 110635Z 12003KT 18/10 A3023 RMK A01 T01820096  RH  057%=      5-min Rain = 0
KPD2 110636Z 10003KT 18/10 A3023 RMK A01 T01820096  RH  057%=      5-min Rain = 0
KPD2 110637Z 10004KT 18/10 A3023 RMK A01 T01820096  RH  057%=      5-min Rain = 0
KPD2 110638Z 11004KT 18/10 A3023 RMK A01 T01820096  RH  057%=      5-min Rain = 0
KPD2 110639Z 10004KT 18/10 A3023 RMK A01 T01820095  RH  057%=      5-min Rain = 0
KPD2 110640Z 10004KT 18/10 A3023 RMK A01 T01820096  RH  057%=      5-min Rain = 0
KPD2 110641Z 10004KT 18/10 A3023 RMK A01 T01820095  RH  057%=      5-min Rain = 0
KPD2 110642Z 10005KT 18/10 A3023 RMK A01 T01820095  RH  057%=      5-min Rain = 0
KPD2 110643Z 10005KT 18/10 A3023 RMK A01 T01830095  RH  056%=      5-min Rain = 0
KPD2 110644Z 11004KT 18/10 A3023 RMK A01 T01840095  RH  056%=      5-min Rain = 0
KPD2 110645Z 10002KT 19/10 A3023 RMK A01 T01850095  RH  056%=      5-min Rain = 0
KPD2 110646Z 10004KT 19/10 A3023 RMK A01 T01850095  RH  056%=      5-min Rain = 0
KPD2 110647Z 12003KT 19/10 A3023 RMK A01 T01850095  RH  056%=      5-min Rain = 0
KPD2 110648Z 11003KT 18/10 A3023 RMK A01 T01840095  RH  056%=      5-min Rain = 0
KPD2 110649Z 11004KT 18/10 A3023 RMK A01 T01840095  RH  056%=      5-min Rain = 0
KPD2 110650Z 11004KT 18/10 A3023 RMK A01 T01840095  RH  056%=      5-min Rain = 0
KPD2 110651Z 11004KT 18/09 A3023 RMK A01 T01840094  RH  056%=      5-min Rain = 0
KPD2 110652Z 10004KT 18/09 A3023 RMK A01 T01840094  RH  056%=      5-min Rain = 0
KPD2 110653Z 10003KT 18/09 A3023 RMK A01 T01840094  RH  056%=      5-min Rain = 0
KPD2 110654Z 10003KT 18/09 A3023 RMK A01 T01840094  RH  056%=      5-min Rain = 0
KPD2 110655Z 12003KT 18/10 A3023 RMK A01 T01830095  RH  056%=      5-min Rain = 0
KPD2 110656Z 11003KT 18/10 A3023 RMK A01 T01830095  RH  056%=      5-min Rain = 0
KPD2 110657Z 11004KT 18/10 A3023 RMK A01 T01820095  RH  057%=      5-min Rain = 0
KPD2 110658Z 11004KT 18/09 A3023 RMK A01 T01820094  RH  057%=      5-min Rain = 0
KPD2 110659Z 10005KT 18/09 A3023 RMK A01 T01820094  RH  057%=      5-min Rain = 0
KPD2 110700Z 10004KT 18/09 A3023 RMK A01 T01820094  RH  056%=      5-min Rain = 0
KPD2 110701Z 11004KT 18/09 A3023 RMK A01 T01820094  RH  056%=      5-min Rain = 0
KPD2 110702Z 10004KT 18/09 A3023 RMK A01 T01830094  RH  056%=      5-min Rain = 0
KPD2 110703Z 11004KT 18/09 A3023 RMK A01 T01830094  RH  056%=      5-min Rain = 0
KPD2 110704Z 11004KT 18/09 A3023 RMK A01 T01830094  RH  056%=      5-min Rain = 0
KPD2 110705Z 11003KT 18/09 A3023 RMK A01 T01830093  RH  056%=      5-min Rain = 0
KPD2 110706Z 12003KT 18/09 A3023 RMK A01 T01830094  RH  056%=      5-min Rain = 0
KPD2 110707Z 11002KT 18/09 A3023 RMK A01 T01830094  RH  056%=      5-min Rain = 0
KPD2 110708Z 11002KT 18/09 A3023 RMK A01 T01830094  RH  056%=      5-min Rain = 0
KPD2 110709Z 11003KT 18/09 A3023 RMK A01 T01820093  RH  056%=      5-min Rain = 0
KPD2 110710Z 11004KT 18/09 A3023 RMK A01 T01820094  RH  056%=      5-min Rain = 0
KPD2 110711Z 10003KT 18/09 A3023 RMK A01 T01820094  RH  056%=      5-min Rain = 0
KPD2 110712Z 10003KT 18/09 A3023 RMK A01 T01820093  RH  056%=      5-min Rain = 0
KPD2 110713Z 10004KT 18/09 A3023 RMK A01 T01810093  RH  056%=      5-min Rain = 0
KPD2 110714Z 09003KT 18/09 A3023 RMK A01 T01810093  RH  056%=      5-min Rain = 0
KPD2 110715Z 10003KT 18/09 A3023 RMK A01 T01810093  RH  057%=      5-min Rain = 0
KPD2 110716Z 09004KT 18/09 A3023 RMK A01 T01800093  RH  057%=      5-min Rain = 0
KPD2 110717Z 10005KT 18/09 A3023 RMK A01 T01800093  RH  057%=      5-min Rain = 0
KPD2 110718Z 10004KT 18/09 A3023 RMK A01 T01800093  RH  057%=      5-min Rain = 0
KPD2 110719Z 10005KT 18/09 A3023 RMK A01 T01800093  RH  057%=      5-min Rain = 0
KPD2 110720Z 10005KT 18/09 A3023 RMK A01 T01800093  RH  057%=      5-min Rain = 0
KPD2 110721Z 10006KT 18/09 A3023 RMK A01 T01800093  RH  057%=      5-min Rain = 0
KPD2 110722Z 10005KT 18/09 A3023 RMK A01 T01810093  RH  056%=      5-min Rain = 0
KPD2 110723Z 10004KT 18/09 A3023 RMK A01 T01800092  RH  056%=      5-min Rain = 0
KPD2 110724Z 10003KT 18/09 A3023 RMK A01 T01810093  RH  056%=      5-min Rain = 0
KPD2 110725Z 10005KT 18/09 A3023 RMK A01 T01810093  RH  056%=      5-min Rain = 0
KPD2 110726Z 10005KT 18/09 A3023 RMK A01 T01810093  RH  056%=      5-min Rain = 0
KPD2 110727Z 10006KT 18/09 A3023 RMK A01 T01810092  RH  056%=      5-min Rain = 0
KPD2 110728Z 10006KT 18/09 A3023 RMK A01 T01820092  RH  056%=      5-min Rain = 0
KPD2 110729Z 09005KT 18/09 A3023 RMK A01 T01830093  RH  056%=      5-min Rain = 0
KPD2 110730Z 10006KT 18/09 A3023 RMK A01 T01830092  RH  055%=      5-min Rain = 0
KPD2 110731Z 10005KT 18/09 A3023 RMK A01 T01830092  RH  055%=      5-min Rain = 0
KPD2 110732Z 09005KT 18/09 A3023 RMK A01 T01840092  RH  055%=      5-min Rain = 0
KPD2 110733Z 10004KT 18/09 A3023 RMK A01 T01840092  RH  055%=      5-min Rain = 0
KPD2 110734Z 11005KT 18/09 A3023 RMK A01 T01840092  RH  055%=      5-min Rain = 0
KPD2 110735Z 11004KT 18/09 A3023 RMK A01 T01840092  RH  055%=      5-min Rain = 0
KPD2 110736Z 11004KT 18/09 A3023 RMK A01 T01840092  RH  055%=      5-min Rain = 0
KPD2 110737Z 10004KT 18/09 A3023 RMK A01 T01840092  RH  055%=      5-min Rain = 0
KPD2 110738Z 11004KT 18/09 A3023 RMK A01 T01830092  RH  055%=      5-min Rain = 0
KPD2 110739Z 10004KT 18/09 A3022 RMK A01 T01830092  RH  055%=      5-min Rain = 0
KPD2 110740Z 11003KT 18/09 A3022 RMK A01 T01830092  RH  055%=      5-min Rain = 0
KPD2 110741Z 10004KT 18/09 A3022 RMK A01 T01820092  RH  056%=      5-min Rain = 0
KPD2 110742Z 10005KT 18/09 A3022 RMK A01 T01800092  RH  056%=      5-min Rain = 0
KPD2 110743Z 10004KT 18/09 A3023 RMK A01 T01800092  RH  056%=      5-min Rain = 0
KPD2 110744Z 10004KT 18/09 A3023 RMK A01 T01790092  RH  056%=      5-min Rain = 0
KPD2 110745Z 09004KT 18/09 A3023 RMK A01 T01790092  RH  057%=      5-min Rain = 0
KPD2 110746Z 10005KT 18/09 A3023 RMK A01 T01790092  RH  057%=      5-min Rain = 0
KPD2 110747Z 10005KT 18/09 A3023 RMK A01 T01790091  RH  057%=      5-min Rain = 0
KPD2 110748Z 09004KT 18/09 A3023 RMK A01 T01790091  RH  056%=      5-min Rain = 0
KPD2 110749Z 09004KT 18/09 A3023 RMK A01 T01790091  RH  056%=      5-min Rain = 0
KPD2 110750Z 08004KT 18/09 A3023 RMK A01 T01800091  RH  056%=      5-min Rain = 0
KPD2 110751Z 10005KT 18/09 A3022 RMK A01 T01810091  RH  056%=      5-min Rain = 0
KPD2 110752Z 10004KT 18/09 A3022 RMK A01 T01810091  RH  055%=      5-min Rain = 0
KPD2 110753Z 09004KT 18/09 A3022 RMK A01 T01820091  RH  055%=      5-min Rain = 0
KPD2 110754Z 10005KT 18/09 A3022 RMK A01 T01820090  RH  055%=      5-min Rain = 0
KPD2 110755Z 10005KT 18/09 A3022 RMK A01 T01820090  RH  055%=      5-min Rain = 0
KPD2 110756Z 10005KT 18/09 A3022 RMK A01 T01820091  RH  055%=      5-min Rain = 0
KPD2 110757Z 10005KT 18/09 A3022 RMK A01 T01820091  RH  055%=      5-min Rain = 0
KPD2 110758Z 10005KT 18/09 A3022 RMK A01 T01820091  RH  055%=      5-min Rain = 0
KPD2 110759Z 10004KT 18/09 A3022 RMK A01 T01810090  RH  055%=      5-min Rain = 0
KPD2 110800Z 10004KT 18/09 A3022 RMK A01 T01810090  RH  055%=      5-min Rain = 0
KPD2 110801Z 10005KT 18/09 A3022 RMK A01 T01810090  RH  055%=      5-min Rain = 0
KPD2 110802Z 10004KT 18/09 A3022 RMK A01 T01810090  RH  055%=      5-min Rain = 0
KPD2 110803Z 11004KT 18/09 A3022 RMK A01 T01810090  RH  055%=      5-min Rain = 0
KPD2 110804Z 10004KT 18/09 A3022 RMK A01 T01810090  RH  055%=      5-min Rain = 0
KPD2 110805Z 10005KT 18/09 A3022 RMK A01 T01800090  RH  055%=      5-min Rain = 0
KPD2 110806Z 10004KT 18/09 A3022 RMK A01 T01800090  RH  055%=      5-min Rain = 0
KPD2 110807Z 10004KT 18/09 A3022 RMK A01 T01800090  RH  055%=      5-min Rain = 0
KPD2 110808Z 10004KT 18/09 A3022 RMK A01 T01810090  RH  055%=      5-min Rain = 0
KPD2 110809Z 10005KT 18/09 A3022 RMK A01 T01800090  RH  055%=      5-min Rain = 0
KPD2 110810Z 10005KT 18/09 A3022 RMK A01 T01800090  RH  055%=      5-min Rain = 0
KPD2 110811Z 10003KT 18/09 A3022 RMK A01 T01800090  RH  055%=      5-min Rain = 0
KPD2 110812Z 11003KT 18/09 A3022 RMK A01 T01800090  RH  056%=      5-min Rain = 0
KPD2 110813Z 12002KT 18/09 A3022 RMK A01 T01800091  RH  056%=      5-min Rain = 0
KPD2 110814Z 12003KT 18/09 A3022 RMK A01 T01780090  RH  056%=      5-min Rain = 0
KPD2 110815Z 12003KT 18/09 A3022 RMK A01 T01770091  RH  057%=      5-min Rain = 0
KPD2 110816Z 12003KT 18/09 A3022 RMK A01 T01760091  RH  057%=      5-min Rain = 0
KPD2 110817Z 11003KT 18/09 A3022 RMK A01 T01750091  RH  058%=      5-min Rain = 0
KPD2 110818Z 12003KT 17/09 A3022 RMK A01 T01740091  RH  058%=      5-min Rain = 0
KPD2 110819Z 12003KT 17/09 A3022 RMK A01 T01730091  RH  059%=      5-min Rain = 0
KPD2 110820Z 13003KT 17/09 A3022 RMK A01 T01710091  RH  059%=      5-min Rain = 0
KPD2 110821Z 13003KT 17/09 A3022 RMK A01 T01700091  RH  060%=      5-min Rain = 0
KPD2 110822Z 13003KT 17/09 A3022 RMK A01 T01680091  RH  060%=      5-min Rain = 0
KPD2 110823Z 12003KT 17/09 A3022 RMK A01 T01670091  RH  061%=      5-min Rain = 0
KPD2 110824Z 12003KT 17/09 A3022 RMK A01 T01650091  RH  061%=      5-min Rain = 0
KPD2 110825Z 13004KT 16/09 A3022 RMK A01 T01640091  RH  062%=      5-min Rain = 0
KPD2 110826Z 12004KT 16/09 A3022 RMK A01 T01620091  RH  062%=      5-min Rain = 0
KPD2 110827Z 12004KT 16/09 A3022 RMK A01 T01610091  RH  063%=      5-min Rain = 0
KPD2 110828Z 12004KT 16/09 A3022 RMK A01 T01600091  RH  063%=      5-min Rain = 0
KPD2 110829Z 12004KT 16/09 A3022 RMK A01 T01590090  RH  064%=      5-min Rain = 0
KPD2 110830Z 12004KT 16/09 A3022 RMK A01 T01580090  RH  064%=      5-min Rain = 0
KPD2 110831Z 12004KT 16/09 A3022 RMK A01 T01580090  RH  064%=      5-min Rain = 0
KPD2 110832Z 12004KT 16/09 A3022 RMK A01 T01570090  RH  064%=      5-min Rain = 0
KPD2 110833Z 12004KT 16/09 A3022 RMK A01 T01570090  RH  065%=      5-min Rain = 0
KPD2 110834Z 12004KT 16/09 A3022 RMK A01 T01560090  RH  065%=      5-min Rain = 0
KPD2 110835Z 12004KT 16/09 A3022 RMK A01 T01560091  RH  065%=      5-min Rain = 0
KPD2 110836Z 12004KT 16/09 A3022 RMK A01 T01560090  RH  065%=      5-min Rain = 0
KPD2 110837Z 12003KT 16/09 A3022 RMK A01 T01560090  RH  065%=      5-min Rain = 0
KPD2 110838Z 12003KT 16/09 A3022 RMK A01 T01560090  RH  065%=      5-min Rain = 0
KPD2 110839Z 12003KT 16/09 A3022 RMK A01 T01550090  RH  065%=      5-min Rain = 0
KPD2 110840Z 12002KT 16/09 A3022 RMK A01 T01550090  RH  065%=      5-min Rain = 0
KPD2 110841Z 13002KT 16/09 A3022 RMK A01 T01550091  RH  066%=      5-min Rain = 0
KPD2 110842Z 13002KT 15/09 A3022 RMK A01 T01540091  RH  066%=      5-min Rain = 0
KPD2 110843Z 12002KT 15/09 A3022 RMK A01 T01540091  RH  066%=      5-min Rain = 0
KPD2 110844Z 12002KT 15/09 A3022 RMK A01 T01530090  RH  066%=      5-min Rain = 0
KPD2 110845Z 11003KT 15/09 A3022 RMK A01 T01530090  RH  066%=      5-min Rain = 0
KPD2 110846Z 11004KT 15/09 A3022 RMK A01 T01530090  RH  066%=      5-min Rain = 0
KPD2 110847Z 11003KT 15/09 A3022 RMK A01 T01520090  RH  066%=      5-min Rain = 0
KPD2 110848Z 12002KT 15/09 A3022 RMK A01 T01520090  RH  066%=      5-min Rain = 0
KPD2 110849Z 13002KT 15/09 A3022 RMK A01 T01520090  RH  067%=      5-min Rain = 0
KPD2 110850Z 12002KT 15/09 A3022 RMK A01 T01520091  RH  067%=      5-min Rain = 0
KPD2 110851Z 12002KT 15/09 A3022 RMK A01 T01520090  RH  067%=      5-min Rain = 0
KPD2 110852Z 11003KT 15/09 A3022 RMK A01 T01520090  RH  066%=      5-min Rain = 0
KPD2 110853Z 11002KT 15/09 A3022 RMK A01 T01520090  RH  066%=      5-min Rain = 0
KPD2 110854Z 11003KT 15/09 A3022 RMK A01 T01520089  RH  066%=      5-min Rain = 0
KPD2 110855Z 11003KT 15/09 A3022 RMK A01 T01520089  RH  066%=      5-min Rain = 0
KPD2 110856Z 12003KT 15/09 A3022 RMK A01 T01520089  RH  066%=      5-min Rain = 0
KPD2 110857Z 12002KT 15/09 A3022 RMK A01 T01520089  RH  066%=      5-min Rain = 0
KPD2 110858Z 12003KT 15/09 A3022 RMK A01 T01520089  RH  066%=      5-min Rain = 0
KPD2 110859Z 12003KT 15/09 A3022 RMK A01 T01520089  RH  066%=      5-min Rain = 0
KPD2 110900Z 12002KT 15/09 A3022 RMK A01 T01520089  RH  066%=      5-min Rain = 0
KPD2 110901Z 12002KT 15/09 A3022 RMK A01 T01520089  RH  066%=      5-min Rain = 0
KPD2 110902Z 12002KT 15/09 A3022 RMK A01 T01520090  RH  066%=      5-min Rain = 0
KPD2 110903Z 12002KT 15/09 A3022 RMK A01 T01510089  RH  066%=      5-min Rain = 0
KPD2 110904Z 11002KT 15/09 A3022 RMK A01 T01510089  RH  066%=      5-min Rain = 0
KPD2 110905Z 12002KT 15/09 A3022 RMK A01 T01500089  RH  066%=      5-min Rain = 0
KPD2 110906Z 13001KT 15/09 A3022 RMK A01 T01500089  RH  067%=      5-min Rain = 0
KPD2 110907Z 13001KT 15/09 A3022 RMK A01 T01490089  RH  067%=      5-min Rain = 0
KPD2 110908Z 14001KT 15/09 A3022 RMK A01 T01470089  RH  068%=      5-min Rain = 0
KPD2 110909Z 14001KT 14/09 A3022 RMK A01 T01440089  RH  070%=      5-min Rain = 0
KPD2 110910Z 00000KT 14/09 A3022 RMK A01 T01420089  RH  070%=      5-min Rain = 0
KPD2 110911Z 00000KT 14/09 A3022 RMK A01 T01400088  RH  071%=      5-min Rain = 0
KPD2 110912Z 00000KT 14/09 A3022 RMK A01 T01400089  RH  072%=      5-min Rain = 0
KPD2 110913Z 00000KT 14/09 A3022 RMK A01 T01380090  RH  072%=      5-min Rain = 0
KPD2 110914Z 00000KT 14/09 A3022 RMK A01 T01370090  RH  073%=      5-min Rain = 0
KPD2 110915Z 00000KT 14/09 A3022 RMK A01 T01370090  RH  073%=      5-min Rain = 0
KPD2 110916Z 00000KT 14/09 A3022 RMK A01 T01360090  RH  074%=      5-min Rain = 0
KPD2 110917Z 00000KT 14/09 A3022 RMK A01 T01350090  RH  074%=      5-min Rain = 0
KPD2 110918Z 00000KT 14/09 A3022 RMK A01 T01350090  RH  074%=      5-min Rain = 0
KPD2 110919Z 09001KT 14/09 A3022 RMK A01 T01350090  RH  074%=      5-min Rain = 0
KPD2 110920Z 10001KT 14/09 A3022 RMK A01 T01350091  RH  075%=      5-min Rain = 0
KPD2 110921Z 09001KT 14/09 A3022 RMK A01 T01350090  RH  074%=      5-min Rain = 0
KPD2 110922Z 09002KT 14/09 A3022 RMK A01 T01350090  RH  074%=      5-min Rain = 0
KPD2 110923Z 09000KT 13/09 A3022 RMK A01 T01340090  RH  075%=      5-min Rain = 0
KPD2 110924Z 00000KT 13/09 A3022 RMK A01 T01330090  RH  075%=      5-min Rain = 0
KPD2 110925Z 00000KT 13/09 A3022 RMK A01 T01330090  RH  075%=      5-min Rain = 0
KPD2 110926Z 00000KT 13/09 A3022 RMK A01 T01320090  RH  076%=      5-min Rain = 0
KPD2 110927Z 00000KT 13/09 A3022 RMK A01 T01320091  RH  076%=      5-min Rain = 0
KPD2 110928Z 00000KT 13/09 A3022 RMK A01 T01330090  RH  076%=      5-min Rain = 0
KPD2 110929Z 00000KT 13/09 A3022 RMK A01 T01320090  RH  075%=      5-min Rain = 0
KPD2 110930Z 00000KT 13/09 A3022 RMK A01 T01320090  RH  075%=      5-min Rain = 0
KPD2 110931Z 00000KT 13/09 A3022 RMK A01 T01320090  RH  075%=      5-min Rain = 0
KPD2 110932Z 00000KT 13/09 A3023 RMK A01 T01320090  RH  076%=      5-min Rain = 0
KPD2 110933Z 00000KT 13/09 A3023 RMK A01 T01320090  RH  076%=      5-min Rain = 0
KPD2 110934Z 00000KT 13/09 A3023 RMK A01 T01310090  RH  076%=      5-min Rain = 0
KPD2 110935Z 00000KT 13/09 A3023 RMK A01 T01320090  RH  076%=      5-min Rain = 0
KPD2 110936Z 00000KT 13/09 A3023 RMK A01 T01320091  RH  076%=      5-min Rain = 0
KPD2 110937Z 00000KT 13/09 A3023 RMK A01 T01320091  RH  076%=      5-min Rain = 0
KPD2 110938Z 00000KT 13/09 A3023 RMK A01 T01320090  RH  076%=      5-min Rain = 0
KPD2 110939Z 08001KT 13/09 A3023 RMK A01 T01310090  RH  076%=      5-min Rain = 0
KPD2 110940Z 08001KT 13/09 A3023 RMK A01 T01310091  RH  076%=      5-min Rain = 0
KPD2 110941Z 08001KT 13/09 A3023 RMK A01 T01310090  RH  076%=      5-min Rain = 0
KPD2 110942Z 08000KT 13/09 A3023 RMK A01 T01310090  RH  076%=      5-min Rain = 0
KPD2 110943Z 08000KT 13/09 A3023 RMK A01 T01310090  RH  076%=      5-min Rain = 0
KPD2 110944Z 00000KT 13/09 A3023 RMK A01 T01310090  RH  076%=      5-min Rain = 0
KPD2 110945Z 00000KT 13/09 A3023 RMK A01 T01310091  RH  076%=      5-min Rain = 0
KPD2 110946Z 00000KT 13/09 A3023 RMK A01 T01300090  RH  076%=      5-min Rain = 0
KPD2 110947Z 00000KT 13/09 A3023 RMK A01 T01300090  RH  077%=      5-min Rain = 0
KPD2 110948Z 00000KT 13/09 A3023 RMK A01 T01300089  RH  076%=      5-min Rain = 0
KPD2 110949Z 08000KT 13/09 A3023 RMK A01 T01290089  RH  077%=      5-min Rain = 0
KPD2 110950Z 00000KT 13/09 A3023 RMK A01 T01290089  RH  077%=      5-min Rain = 0
KPD2 110951Z 00000KT 13/09 A3023 RMK A01 T01290090  RH  077%=      5-min Rain = 0
KPD2 110952Z 00000KT 13/09 A3022 RMK A01 T01280091  RH  078%=      5-min Rain = 0
KPD2 110953Z 00000KT 13/09 A3022 RMK A01 T01280091  RH  078%=      5-min Rain = 0
KPD2 110954Z 08000KT 13/09 A3023 RMK A01 T01280091  RH  078%=      5-min Rain = 0
KPD2 110955Z 08001KT 13/09 A3023 RMK A01 T01280091  RH  078%=      5-min Rain = 0
KPD2 110956Z 08001KT 13/09 A3023 RMK A01 T01280091  RH  078%=      5-min Rain = 0
KPD2 110957Z 35001KT 13/09 A3023 RMK A01 T01270090  RH  078%=      5-min Rain = 0
KPD2 110958Z 35001KT 13/09 A3022 RMK A01 T01260089  RH  078%=      5-min Rain = 0
KPD2 110959Z 35001KT 13/09 A3022 RMK A01 T01260089  RH  078%=      5-min Rain = 0
KPD2 111000Z 35001KT 13/09 A3022 RMK A01 T01250089  RH  078%=      5-min Rain = 0
KPD2 111001Z 35000KT 13/09 A3022 RMK A01 T01250089  RH  079%=      5-min Rain = 0
KPD2 111002Z 00000KT 12/09 A3022 RMK A01 T01240089  RH  079%=      5-min Rain = 0
KPD2 111003Z 00000KT 12/09 A3022 RMK A01 T01240089  RH  079%=      5-min Rain = 0
KPD2 111004Z 00000KT 12/09 A3022 RMK A01 T01240090  RH  080%=      5-min Rain = 0
KPD2 111005Z 00000KT 12/09 A3022 RMK A01 T01240090  RH  080%=      5-min Rain = 0
KPD2 111006Z 35000KT 12/09 A3022 RMK A01 T01240090  RH  080%=      5-min Rain = 0
KPD2 111007Z 35001KT 12/09 A3022 RMK A01 T01230090  RH  080%=      5-min Rain = 0
KPD2 111008Z 35000KT 12/09 A3022 RMK A01 T01230090  RH  080%=      5-min Rain = 0
KPD2 111009Z 35000KT 12/09 A3022 RMK A01 T01230090  RH  080%=      5-min Rain = 0
KPD2 111010Z 00000KT 12/09 A3022 RMK A01 T01230089  RH  079%=      5-min Rain = 0
KPD2 111011Z 00000KT 12/09 A3022 RMK A01 T01240089  RH  079%=      5-min Rain = 0
KPD2 111012Z 35000KT 12/09 A3022 RMK A01 T01230089  RH  080%=      5-min Rain = 0
KPD2 111013Z 35000KT 12/09 A3022 RMK A01 T01240089  RH  079%=      5-min Rain = 0
KPD2 111014Z 35000KT 12/09 A3022 RMK A01 T01240089  RH  079%=      5-min Rain = 0
KPD2 111015Z 00000KT 13/09 A3022 RMK A01 T01250089  RH  079%=      5-min Rain = 0
KPD2 111016Z 34000KT 13/09 A3022 RMK A01 T01250089  RH  078%=      5-min Rain = 0
KPD2 111017Z 00000KT 13/09 A3022 RMK A01 T01250089  RH  078%=      5-min Rain = 0
KPD2 111018Z 00000KT 13/09 A3023 RMK A01 T01260088  RH  078%=      5-min Rain = 0
KPD2 111019Z 00000KT 13/09 A3023 RMK A01 T01260088  RH  078%=      5-min Rain = 0
KPD2 111020Z 00000KT 13/09 A3023 RMK A01 T01260088  RH  078%=      5-min Rain = 0
KPD2 111021Z 00000KT 13/09 A3023 RMK A01 T01260088  RH  078%=      5-min Rain = 0
KPD2 111022Z 00000KT 13/09 A3023 RMK A01 T01260088  RH  078%=      5-min Rain = 0
KPD2 111023Z 00000KT 13/09 A3023 RMK A01 T01250087  RH  077%=      5-min Rain = 0
KPD2 111024Z 00000KT 13/09 A3023 RMK A01 T01260087  RH  077%=      5-min Rain = 0
KPD2 111025Z 00000KT 13/09 A3023 RMK A01 T01260087  RH  077%=      5-min Rain = 0
KPD2 111026Z 00000KT 13/09 A3023 RMK A01 T01250087  RH  078%=      5-min Rain = 0
KPD2 111027Z 00000KT 13/09 A3023 RMK A01 T01250087  RH  078%=      5-min Rain = 0
KPD2 111028Z 00000KT 12/09 A3023 RMK A01 T01240087  RH  078%=      5-min Rain = 0
KPD2 111029Z 00000KT 12/09 A3023 RMK A01 T01240087  RH  078%=      5-min Rain = 0
KPD2 111030Z 00000KT 12/09 A3023 RMK A01 T01240087  RH  078%=      5-min Rain = 0
KPD2 111031Z 27000KT 12/09 A3023 RMK A01 T01240087  RH  078%=      5-min Rain = 0
KPD2 111032Z 27001KT 12/09 A3023 RMK A01 T01240087  RH  078%=      5-min Rain = 0
KPD2 111033Z 28001KT 12/09 A3023 RMK A01 T01230087  RH  078%=      5-min Rain = 0
KPD2 111034Z 28001KT 12/09 A3023 RMK A01 T01230087  RH  079%=      5-min Rain = 0
KPD2 111035Z 27000KT 12/09 A3023 RMK A01 T01240088  RH  078%=      5-min Rain = 0
KPD2 111036Z 27001KT 12/09 A3023 RMK A01 T01240087  RH  078%=      5-min Rain = 0
KPD2 111037Z 29001KT 12/09 A3023 RMK A01 T01240087  RH  078%=      5-min Rain = 0
KPD2 111038Z 29001KT 12/09 A3023 RMK A01 T01240088  RH  078%=      5-min Rain = 0
KPD2 111039Z 30001KT 13/09 A3023 RMK A01 T01250088  RH  078%=      5-min Rain = 0
KPD2 111040Z 30001KT 13/09 A3023 RMK A01 T01250087  RH  078%=      5-min Rain = 0
KPD2 111041Z 30002KT 13/09 A3022 RMK A01 T01250088  RH  078%=      5-min Rain = 0
KPD2 111042Z 30002KT 13/09 A3022 RMK A01 T01250087  RH  078%=      5-min Rain = 0
KPD2 111043Z 32002KT 12/09 A3022 RMK A01 T01240087  RH  078%=      5-min Rain = 0
KPD2 111044Z 32002KT 12/09 A3022 RMK A01 T01230087  RH  078%=      5-min Rain = 0
KPD2 111045Z 33002KT 12/09 A3022 RMK A01 T01230087  RH  079%=      5-min Rain = 0
KPD2 111046Z 34001KT 12/09 A3022 RMK A01 T01220087  RH  079%=      5-min Rain = 0
KPD2 111047Z 29001KT 12/09 A3022 RMK A01 T01230088  RH  079%=      5-min Rain = 0
KPD2 111048Z 28001KT 12/09 A3022 RMK A01 T01230088  RH  079%=      5-min Rain = 0
KPD2 111049Z 28000KT 12/09 A3022 RMK A01 T01220087  RH  079%=      5-min Rain = 0
KPD2 111050Z 28000KT 12/09 A3023 RMK A01 T01220087  RH  079%=      5-min Rain = 0
KPD2 111051Z 28001KT 12/09 A3023 RMK A01 T01220087  RH  079%=      5-min Rain = 0
KPD2 111052Z 28001KT 12/09 A3023 RMK A01 T01220087  RH  079%=      5-min Rain = 0
KPD2 111053Z 28001KT 12/09 A3023 RMK A01 T01220087  RH  079%=      5-min Rain = 0
KPD2 111054Z 28000KT 12/09 A3023 RMK A01 T01220087  RH  079%=      5-min Rain = 0
KPD2 111055Z 00000KT 12/09 A3023 RMK A01 T01210087  RH  079%=      5-min Rain = 0
KPD2 111056Z 00000KT 12/09 A3023 RMK A01 T01210087  RH  080%=      5-min Rain = 0
KPD2 111057Z 00000KT 12/09 A3023 RMK A01 T01210087  RH  080%=      5-min Rain = 0
KPD2 111058Z 00000KT 12/09 A3023 RMK A01 T01210087  RH  080%=      5-min Rain = 0
KPD2 111059Z 28000KT 12/09 A3023 RMK A01 T01200087  RH  080%=      5-min Rain = 0
KPD2 111100Z 28001KT 12/09 A3023 RMK A01 T01200087  RH  080%=      5-min Rain = 0
KPD2 111101Z 28001KT 12/09 A3023 RMK A01 T01190087  RH  081%=      5-min Rain = 0
KPD2 111102Z 28001KT 12/09 A3023 RMK A01 T01190087  RH  081%=      5-min Rain = 0
KPD2 111103Z 28002KT 12/09 A3023 RMK A01 T01190087  RH  081%=      5-min Rain = 0
KPD2 111104Z 28002KT 12/09 A3023 RMK A01 T01190087  RH  081%=      5-min Rain = 0
KPD2 111105Z 28002KT 12/09 A3023 RMK A01 T01180087  RH  081%=      5-min Rain = 0
KPD2 111106Z 29001KT 12/09 A3023 RMK A01 T01180087  RH  081%=      5-min Rain = 0
KPD2 111107Z 29001KT 12/09 A3023 RMK A01 T01180087  RH  081%=      5-min Rain = 0
KPD2 111108Z 29001KT 12/09 A3023 RMK A01 T01180087  RH  081%=      5-min Rain = 0
KPD2 111109Z 29001KT 12/09 A3023 RMK A01 T01180087  RH  081%=      5-min Rain = 0
KPD2 111110Z 30001KT 12/09 A3023 RMK A01 T01180087  RH  081%=      5-min Rain = 0
KPD2 111111Z 32002KT 12/09 A3023 RMK A01 T01190088  RH  081%=      5-min Rain = 0
KPD2 111112Z 33002KT 12/09 A3023 RMK A01 T01180087  RH  081%=      5-min Rain = 0
KPD2 111113Z 34002KT 12/09 A3023 RMK A01 T01180087  RH  081%=      5-min Rain = 0
KPD2 111114Z 34002KT 12/09 A3023 RMK A01 T01180087  RH  081%=      5-min Rain = 0
KPD2 111115Z 34002KT 12/09 A3023 RMK A01 T01180087  RH  082%=      5-min Rain = 0
KPD2 111116Z 34002KT 12/09 A3023 RMK A01 T01170087  RH  081%=      5-min Rain = 0
KPD2 111117Z 34002KT 12/09 A3023 RMK A01 T01170087  RH  082%=      5-min Rain = 0
KPD2 111118Z 34002KT 12/09 A3023 RMK A01 T01170087  RH  082%=      5-min Rain = 0
KPD2 111119Z 33002KT 12/09 A3023 RMK A01 T01170087  RH  082%=      5-min Rain = 0
KPD2 111120Z 34002KT 12/09 A3023 RMK A01 T01170087  RH  082%=      5-min Rain = 0
KPD2 111121Z 34001KT 12/09 A3023 RMK A01 T01170087  RH  082%=      5-min Rain = 0
KPD2 111122Z 31001KT 12/09 A3023 RMK A01 T01170087  RH  082%=      5-min Rain = 0
KPD2 111123Z 31001KT 12/09 A3023 RMK A01 T01170087  RH  082%=      5-min Rain = 0
KPD2 111124Z 30001KT 12/09 A3023 RMK A01 T01180087  RH  081%=      5-min Rain = 0
KPD2 111125Z 30001KT 12/09 A3023 RMK A01 T01180086  RH  081%=      5-min Rain = 0
KPD2 111126Z 30001KT 12/09 A3023 RMK A01 T01180086  RH  081%=      5-min Rain = 0
KPD2 111127Z 30001KT 12/09 A3023 RMK A01 T01180086  RH  081%=      5-min Rain = 0
KPD2 111128Z 30001KT 12/09 A3023 RMK A01 T01180086  RH  081%=      5-min Rain = 0
KPD2 111129Z 30001KT 12/09 A3023 RMK A01 T01180086  RH  081%=      5-min Rain = 0
KPD2 111130Z 30001KT 12/09 A3023 RMK A01 T01180086  RH  081%=      5-min Rain = 0
KPD2 111131Z 30001KT 12/09 A3023 RMK A01 T01180087  RH  081%=      5-min Rain = 0
KPD2 111132Z 30001KT 12/09 A3023 RMK A01 T01180087  RH  081%=      5-min Rain = 0
KPD2 111133Z 30000KT 12/09 A3023 RMK A01 T01180086  RH  081%=      5-min Rain = 0
KPD2 111134Z 30000KT 12/09 A3023 RMK A01 T01170086  RH  081%=      5-min Rain = 0
KPD2 111135Z 28001KT 12/09 A3023 RMK A01 T01160086  RH  082%=      5-min Rain = 0
KPD2 111136Z 27001KT 12/09 A3023 RMK A01 T01160085  RH  081%=      5-min Rain = 0
KPD2 111137Z 28002KT 12/09 A3023 RMK A01 T01160086  RH  082%=      5-min Rain = 0
KPD2 111138Z 27001KT 12/09 A3023 RMK A01 T01150086  RH  082%=      5-min Rain = 0
KPD2 111139Z 27001KT 12/09 A3023 RMK A01 T01150086  RH  082%=      5-min Rain = 0
KPD2 111140Z 27001KT 12/09 A3023 RMK A01 T01150086  RH  083%=      5-min Rain = 0
KPD2 111141Z 27001KT 12/09 A3023 RMK A01 T01150086  RH  083%=      5-min Rain = 0
KPD2 111142Z 28001KT 11/09 A3023 RMK A01 T01140086  RH  083%=      5-min Rain = 0
KPD2 111143Z 28001KT 11/09 A3023 RMK A01 T01140086  RH  083%=      5-min Rain = 0
KPD2 111144Z 29001KT 11/09 A3023 RMK A01 T01140086  RH  083%=      5-min Rain = 0
KPD2 111145Z 30001KT 11/09 A3023 RMK A01 T01140086  RH  083%=      5-min Rain = 0
KPD2 111146Z 34001KT 11/09 A3023 RMK A01 T01140086  RH  083%=      5-min Rain = 0
KPD2 111147Z 34001KT 11/09 A3023 RMK A01 T01140086  RH  083%=      5-min Rain = 0
KPD2 111148Z 32001KT 11/09 A3023 RMK A01 T01130086  RH  083%=      5-min Rain = 0
KPD2 111149Z 33002KT 11/09 A3023 RMK A01 T01130086  RH  083%=      5-min Rain = 0
KPD2 111150Z 32002KT 11/09 A3023 RMK A01 T01130086  RH  083%=      5-min Rain = 0
KPD2 111151Z 29003KT 11/09 A3023 RMK A01 T01130085  RH  083%=      5-min Rain = 0
KPD2 111152Z 29003KT 11/09 A3023 RMK A01 T01130086  RH  083%=      5-min Rain = 0
KPD2 111153Z 29003KT 11/09 A3023 RMK A01 T01140086  RH  083%=      5-min Rain = 0
KPD2 111154Z 29002KT 11/09 A3023 RMK A01 T01140086  RH  083%=      5-min Rain = 0
KPD2 111155Z 29002KT 11/09 A3023 RMK A01 T01140086  RH  083%=      5-min Rain = 0
KPD2 111156Z 29001KT 11/09 A3023 RMK A01 T01140086  RH  083%=      5-min Rain = 0
KPD2 111157Z 27001KT 11/09 A3023 RMK A01 T01140086  RH  083%=      5-min Rain = 0
KPD2 111158Z 27001KT 11/09 A3023 RMK A01 T01140086  RH  083%=      5-min Rain = 0
KPD2 111159Z 28000KT 11/09 A3023 RMK A01 T01140086  RH  083%=      5-min Rain = 0
KPD2 111200Z 29001KT 11/09 A3023 RMK A01 T01140086  RH  083%=      5-min Rain = 0
KPD2 111201Z 29001KT 11/09 A3023 RMK A01 T01140086  RH  083%=      5-min Rain = 0
KPD2 111202Z 29001KT 11/09 A3023 RMK A01 T01140086  RH  083%=      5-min Rain = 0
KPD2 111203Z 29002KT 11/09 A3023 RMK A01 T01140087  RH  083%=      5-min Rain = 0
KPD2 111204Z 29002KT 11/09 A3023 RMK A01 T01130086  RH  083%=      5-min Rain = 0
KPD2 111205Z 29001KT 11/09 A3023 RMK A01 T01130086  RH  083%=      5-min Rain = 0
KPD2 111206Z 29001KT 11/09 A3023 RMK A01 T01130086  RH  083%=      5-min Rain = 0
KPD2 111207Z 29000KT 11/09 A3023 RMK A01 T01130086  RH  083%=      5-min Rain = 0
KPD2 111208Z 32000KT 11/09 A3023 RMK A01 T01120085  RH  083%=      5-min Rain = 0
KPD2 111209Z 31001KT 11/09 A3023 RMK A01 T01120086  RH  084%=      5-min Rain = 0
KPD2 111210Z 30001KT 11/09 A3023 RMK A01 T01120085  RH  084%=      5-min Rain = 0
KPD2 111211Z 30001KT 11/09 A3023 RMK A01 T01120086  RH  084%=      5-min Rain = 0
KPD2 111212Z 29001KT 11/09 A3023 RMK A01 T01110085  RH  084%=      5-min Rain = 0
KPD2 111213Z 29001KT 11/09 A3023 RMK A01 T01110085  RH  084%=      5-min Rain = 0
KPD2 111214Z 29001KT 11/09 A3024 RMK A01 T01110085  RH  084%=      5-min Rain = 0
KPD2 111215Z 29001KT 11/09 A3024 RMK A01 T01110085  RH  084%=      5-min Rain = 0
KPD2 111216Z 29001KT 11/09 A3024 RMK A01 T01110086  RH  085%=      5-min Rain = 0
KPD2 111217Z 29001KT 11/09 A3024 RMK A01 T01100085  RH  085%=      5-min Rain = 0
KPD2 111218Z 29001KT 11/09 A3024 RMK A01 T01100085  RH  085%=      5-min Rain = 0
KPD2 111219Z 29001KT 11/09 A3024 RMK A01 T01090085  RH  085%=      5-min Rain = 0
KPD2 111220Z 29002KT 11/09 A3024 RMK A01 T01090085  RH  085%=      5-min Rain = 0
KPD2 111221Z 29002KT 11/09 A3024 RMK A01 T01090085  RH  085%=      5-min Rain = 0
KPD2 111222Z 29002KT 11/09 A3024 RMK A01 T01090085  RH  085%=      5-min Rain = 0
KPD2 111223Z 30002KT 11/09 A3024 RMK A01 T01090085  RH  085%=      5-min Rain = 0
KPD2 111224Z 29003KT 11/09 A3024 RMK A01 T01090086  RH  085%=      5-min Rain = 0
KPD2 111225Z 29003KT 11/09 A3024 RMK A01 T01090085  RH  085%=      5-min Rain = 0
KPD2 111226Z 30003KT 11/09 A3024 RMK A01 T01090085  RH  085%=      5-min Rain = 0
KPD2 111227Z 30003KT 11/09 A3024 RMK A01 T01090085  RH  085%=      5-min Rain = 0
KPD2 111228Z 29002KT 11/09 A3024 RMK A01 T01090085  RH  085%=      5-min Rain = 0
KPD2 111229Z 31002KT 11/09 A3024 RMK A01 T01090085  RH  085%=      5-min Rain = 0
KPD2 111230Z 32002KT 11/09 A3024 RMK A01 T01090085  RH  085%=      5-min Rain = 0
KPD2 111231Z 32002KT 11/09 A3024 RMK A01 T01090085  RH  085%=      5-min Rain = 0
KPD2 111232Z 32002KT 11/09 A3024 RMK A01 T01090085  RH  085%=      5-min Rain = 0
KPD2 111233Z 32002KT 11/09 A3024 RMK A01 T01090085  RH  085%=      5-min Rain = 0
KPD2 111234Z 32003KT 11/09 A3024 RMK A01 T01090085  RH  085%=      5-min Rain = 0
KPD2 111235Z 32002KT 11/09 A3024 RMK A01 T01090085  RH  085%=      5-min Rain = 0
KPD2 111236Z 31002KT 11/09 A3024 RMK A01 T01090085  RH  085%=      5-min Rain = 0
KPD2 111237Z 31003KT 11/09 A3024 RMK A01 T01090085  RH  085%=      5-min Rain = 0
KPD2 111238Z 30003KT 11/09 A3024 RMK A01 T01090085  RH  085%=      5-min Rain = 0
KPD2 111239Z 30002KT 11/09 A3023 RMK A01 T01100086  RH  085%=      5-min Rain = 0
KPD2 111240Z 30002KT 11/09 A3024 RMK A01 T01100085  RH  085%=      5-min Rain = 0
KPD2 111241Z 28002KT 11/09 A3024 RMK A01 T01100085  RH  085%=      5-min Rain = 0
KPD2 111242Z 29002KT 11/09 A3023 RMK A01 T01110085  RH  084%=      5-min Rain = 0
KPD2 111243Z 29002KT 11/09 A3024 RMK A01 T01110085  RH  084%=      5-min Rain = 0
KPD2 111244Z 29002KT 11/09 A3024 RMK A01 T01110085  RH  084%=      5-min Rain = 0
KPD2 111245Z 29002KT 11/09 A3023 RMK A01 T01110086  RH  084%=      5-min Rain = 0
KPD2 111246Z 30002KT 11/09 A3023 RMK A01 T01110085  RH  084%=      5-min Rain = 0
KPD2 111247Z 31003KT 11/09 A3023 RMK A01 T01100085  RH  084%=      5-min Rain = 0
KPD2 111248Z 31003KT 11/08 A3023 RMK A01 T01090084  RH  084%=      5-min Rain = 0
KPD2 111249Z 32003KT 11/08 A3023 RMK A01 T01090084  RH  085%=      5-min Rain = 0
KPD2 111250Z 32004KT 11/08 A3023 RMK A01 T01090084  RH  085%=      5-min Rain = 0
KPD2 111251Z 32003KT 11/09 A3023 RMK A01 T01090085  RH  085%=      5-min Rain = 0
KPD2 111252Z 32003KT 11/09 A3023 RMK A01 T01090085  RH  085%=      5-min Rain = 0
KPD2 111253Z 32004KT 11/09 A3023 RMK A01 T01090085  RH  085%=      5-min Rain = 0
KPD2 111254Z 33003KT 11/09 A3023 RMK A01 T01100086  RH  085%=      5-min Rain = 0
KPD2 111255Z 32004KT 11/09 A3023 RMK A01 T01100086  RH  085%=      5-min Rain = 0
KPD2 111256Z 33003KT 11/09 A3023 RMK A01 T01110087  RH  085%=      5-min Rain = 0
KPD2 111257Z 32003KT 11/09 A3023 RMK A01 T01120087  RH  084%=      5-min Rain = 0
KPD2 111258Z 32003KT 11/09 A3024 RMK A01 T01130087  RH  084%=      5-min Rain = 0
KPD2 111259Z 32003KT 12/09 A3024 RMK A01 T01150088  RH  083%=      5-min Rain = 0
KPD2 111300Z 32003KT 12/09 A3024 RMK A01 T01160088  RH  083%=      5-min Rain = 0
KPD2 111301Z 33003KT 12/09 A3024 RMK A01 T01170088  RH  082%=      5-min Rain = 0
KPD2 111302Z 32003KT 12/09 A3024 RMK A01 T01170088  RH  082%=      5-min Rain = 0
KPD2 111303Z 31003KT 12/09 A3024 RMK A01 T01170087  RH  082%=      5-min Rain = 0
KPD2 111304Z 32003KT 12/09 A3024 RMK A01 T01180087  RH  082%=      5-min Rain = 0
KPD2 111305Z 32003KT 12/09 A3024 RMK A01 T01180087  RH  081%=      5-min Rain = 0
KPD2 111306Z 32003KT 12/09 A3023 RMK A01 T01190087  RH  081%=      5-min Rain = 0
KPD2 111307Z 32003KT 12/09 A3023 RMK A01 T01190088  RH  081%=      5-min Rain = 0
KPD2 111308Z 32003KT 12/09 A3023 RMK A01 T01190088  RH  081%=      5-min Rain = 0
KPD2 111309Z 32003KT 12/09 A3023 RMK A01 T01200088  RH  081%=      5-min Rain = 0
KPD2 111310Z 32002KT 12/09 A3023 RMK A01 T01200088  RH  081%=      5-min Rain = 0
KPD2 111311Z 31002KT 12/09 A3023 RMK A01 T01210088  RH  080%=      5-min Rain = 0
KPD2 111312Z 31002KT 12/09 A3023 RMK A01 T01220088  RH  080%=      5-min Rain = 0
KPD2 111313Z 31002KT 12/09 A3023 RMK A01 T01220089  RH  080%=      5-min Rain = 0
KPD2 111314Z 32002KT 12/09 A3023 RMK A01 T01230089  RH  080%=      5-min Rain = 0
KPD2 111315Z 31002KT 12/09 A3023 RMK A01 T01240089  RH  080%=      5-min Rain = 0
KPD2 111316Z 31002KT 12/09 A3023 RMK A01 T01240089  RH  079%=      5-min Rain = 0
KPD2 111317Z 31002KT 13/09 A3023 RMK A01 T01250089  RH  079%=      5-min Rain = 0
KPD2 111318Z 31002KT 13/09 A3023 RMK A01 T01250090  RH  079%=      5-min Rain = 0
KPD2 111319Z 32002KT 13/09 A3023 RMK A01 T01260089  RH  078%=      5-min Rain = 0
KPD2 111320Z 30002KT 13/09 A3023 RMK A01 T01260089  RH  078%=      5-min Rain = 0
KPD2 111321Z 30002KT 13/09 A3023 RMK A01 T01270089  RH  078%=      5-min Rain = 0
KPD2 111322Z 29001KT 13/09 A3023 RMK A01 T01270089  RH  078%=      5-min Rain = 0
KPD2 111323Z 29000KT 13/09 A3023 RMK A01 T01280090  RH  077%=      5-min Rain = 0
KPD2 111324Z 28001KT 13/09 A3023 RMK A01 T01290091  RH  078%=      5-min Rain = 0
KPD2 111325Z 27001KT 13/09 A3023 RMK A01 T01300092  RH  078%=      5-min Rain = 0
KPD2 111326Z 27001KT 13/09 A3024 RMK A01 T01300092  RH  078%=      5-min Rain = 0
KPD2 111327Z 28001KT 13/09 A3024 RMK A01 T01300092  RH  078%=      5-min Rain = 0
KPD2 111328Z 30001KT 13/09 A3024 RMK A01 T01310093  RH  078%=      5-min Rain = 0
KPD2 111329Z 29001KT 13/09 A3024 RMK A01 T01310093  RH  077%=      5-min Rain = 0
KPD2 111330Z 31001KT 13/09 A3024 RMK A01 T01310093  RH  077%=      5-min Rain = 0
KPD2 111331Z 34001KT 13/09 A3024 RMK A01 T01310093  RH  077%=      5-min Rain = 0
KPD2 111332Z 34000KT 13/09 A3024 RMK A01 T01320092  RH  077%=      5-min Rain = 0
KPD2 111333Z 34001KT 13/09 A3024 RMK A01 T01320092  RH  077%=      5-min Rain = 0
KPD2 111334Z 34001KT 13/09 A3024 RMK A01 T01320092  RH  076%=      5-min Rain = 0
KPD2 111335Z 34000KT 13/09 A3024 RMK A01 T01330092  RH  076%=      5-min Rain = 0
KPD2 111336Z 34000KT 13/09 A3024 RMK A01 T01340092  RH  076%=      5-min Rain = 0
KPD2 111337Z 34000KT 13/09 A3024 RMK A01 T01340092  RH  076%=      5-min Rain = 0
KPD2 111338Z 34000KT 14/09 A3024 RMK A01 T01350093  RH  076%=      5-min Rain = 0
KPD2 111339Z 34001KT 14/09 A3024 RMK A01 T01360094  RH  076%=      5-min Rain = 0
KPD2 111340Z 34000KT 14/09 A3024 RMK A01 T01360093  RH  075%=      5-min Rain = 0
KPD2 111341Z 34001KT 14/09 A3024 RMK A01 T01370093  RH  075%=      5-min Rain = 0
KPD2 111342Z 33001KT 14/09 A3024 RMK A01 T01370093  RH  074%=      5-min Rain = 0
KPD2 111343Z 33001KT 14/09 A3024 RMK A01 T01380092  RH  074%=      5-min Rain = 0
KPD2 111344Z 33000KT 14/09 A3024 RMK A01 T01380093  RH  074%=      5-min Rain = 0
KPD2 111345Z 32000KT 14/09 A3024 RMK A01 T01390094  RH  074%=      5-min Rain = 0
KPD2 111346Z 00000KT 14/09 A3024 RMK A01 T01400094  RH  074%=      5-min Rain = 0
KPD2 111347Z 31000KT 14/09 A3024 RMK A01 T01400093  RH  073%=      5-min Rain = 0
KPD2 111348Z 36000KT 14/09 A3024 RMK A01 T01410093  RH  073%=      5-min Rain = 0
KPD2 111349Z 00000KT 14/09 A3024 RMK A01 T01420094  RH  073%=      5-min Rain = 0
KPD2 111350Z 00001KT 14/10 A3024 RMK A01 T01430095  RH  072%=      5-min Rain = 0
KPD2 111351Z 01000KT 14/10 A3024 RMK A01 T01440096  RH  073%=      5-min Rain = 0
KPD2 111352Z 01001KT 15/09 A3024 RMK A01 T01450094  RH  071%=      5-min Rain = 0
KPD2 111353Z 01001KT 15/09 A3024 RMK A01 T01460093  RH  070%=      5-min Rain = 0
KPD2 111354Z 01000KT 15/09 A3023 RMK A01 T01470094  RH  070%=      5-min Rain = 0
KPD2 111355Z 01000KT 15/09 A3023 RMK A01 T01490094  RH  070%=      5-min Rain = 0
KPD2 111356Z 01000KT 15/09 A3023 RMK A01 T01490093  RH  069%=      5-min Rain = 0
KPD2 111357Z 01001KT 15/09 A3023 RMK A01 T01490094  RH  070%=      5-min Rain = 0
KPD2 111358Z 02000KT 15/10 A3023 RMK A01 T01500096  RH  070%=      5-min Rain = 0
KPD2 111359Z 02000KT 15/09 A3024 RMK A01 T01510094  RH  068%=      5-min Rain = 0
KPD2 111400Z 02000KT 15/10 A3024 RMK A01 T01520095  RH  069%=      5-min Rain = 0
KPD2 111401Z 02000KT 15/10 A3024 RMK A01 T01530095  RH  068%=      5-min Rain = 0
KPD2 111402Z 00000KT 16/09 A3024 RMK A01 T01550094  RH  067%=      5-min Rain = 0
KPD2 111403Z 00000KT 16/10 A3023 RMK A01 T01560095  RH  067%=      5-min Rain = 0
KPD2 111404Z 02000KT 16/09 A3023 RMK A01 T01580094  RH  066%=      5-min Rain = 0
KPD2 111405Z 02000KT 16/10 A3023 RMK A01 T01590095  RH  066%=      5-min Rain = 0
KPD2 111406Z 00000KT 16/09 A3023 RMK A01 T01600094  RH  065%=      5-min Rain = 0
KPD2 111407Z 00000KT 16/09 A3023 RMK A01 T01610094  RH  064%=      5-min Rain = 0
KPD2 111408Z 00000KT 16/09 A3023 RMK A01 T01610093  RH  064%=      5-min Rain = 0
KPD2 111409Z 05000KT 16/09 A3023 RMK A01 T01620094  RH  064%=      5-min Rain = 0
KPD2 111410Z 00000KT 16/10 A3023 RMK A01 T01640095  RH  064%=      5-min Rain = 0
KPD2 111411Z 00000KT 17/10 A3023 RMK A01 T01660095  RH  063%=      5-min Rain = 0
KPD2 111412Z 00000KT 17/10 A3023 RMK A01 T01690096  RH  062%=      5-min Rain = 0
KPD2 111413Z 05001KT 17/10 A3023 RMK A01 T01710096  RH  062%=      5-min Rain = 0
KPD2 111414Z 05001KT 17/10 A3023 RMK A01 T01720096  RH  061%=      5-min Rain = 0
KPD2 111415Z 05001KT 17/10 A3023 RMK A01 T01740099  RH  061%=      5-min Rain = 0
KPD2 111416Z 05001KT 18/10 A3023 RMK A01 T01760098  RH  060%=      5-min Rain = 0
KPD2 111417Z 08000KT 18/10 A3023 RMK A01 T01770097  RH  059%=      5-min Rain = 0
KPD2 111418Z 07000KT 18/10 A3023 RMK A01 T01780100  RH  060%=      5-min Rain = 0
KPD2 111419Z 12000KT 18/10 A3023 RMK A01 T01790099  RH  059%=      5-min Rain = 0
KPD2 111420Z 12000KT 18/10 A3023 RMK A01 T01800096  RH  058%=      5-min Rain = 0
KPD2 111421Z 11000KT 18/10 A3023 RMK A01 T01810096  RH  057%=      5-min Rain = 0
KPD2 111422Z 10000KT 18/10 A3023 RMK A01 T01830097  RH  057%=      5-min Rain = 0
KPD2 111423Z 11000KT 18/10 A3024 RMK A01 T01840097  RH  057%=      5-min Rain = 0
KPD2 111424Z 12000KT 18/10 A3024 RMK A01 T01840097  RH  057%=      5-min Rain = 0
KPD2 111425Z 11000KT 19/10 A3023 RMK A01 T01850099  RH  057%=      5-min Rain = 0
KPD2 111426Z 00000KT 19/10 A3023 RMK A01 T01860097  RH  056%=      5-min Rain = 0
KPD2 111427Z 00000KT 19/10 A3023 RMK A01 T01870097  RH  056%=      5-min Rain = 0
KPD2 111428Z 14000KT 19/10 A3023 RMK A01 T01870096  RH  055%=      5-min Rain = 0
KPD2 111429Z 14001KT 19/10 A3023 RMK A01 T01890096  RH  055%=      5-min Rain = 0
KPD2 111430Z 13001KT 19/10 A3023 RMK A01 T01890097  RH  055%=      5-min Rain = 0
KPD2 111431Z 15002KT 19/10 A3023 RMK A01 T01900098  RH  055%=      5-min Rain = 0
KPD2 111432Z 14001KT 19/10 A3023 RMK A01 T01910097  RH  054%=      5-min Rain = 0
KPD2 111433Z 14001KT 19/10 A3023 RMK A01 T01910096  RH  054%=      5-min Rain = 0
KPD2 111434Z 16000KT 19/10 A3023 RMK A01 T01910096  RH  054%=      5-min Rain = 0
KPD2 111435Z 16000KT 19/10 A3023 RMK A01 T01920097  RH  054%=      5-min Rain = 0
KPD2 111436Z 20001KT 19/10 A3023 RMK A01 T01930098  RH  054%=      5-min Rain = 0
KPD2 111437Z 17001KT 20/10 A3023 RMK A01 T01950099  RH  054%=      5-min Rain = 0
KPD2 111438Z 14002KT 20/10 A3023 RMK A01 T01960100  RH  054%=      5-min Rain = 0
KPD2 111439Z 15001KT 20/10 A3023 RMK A01 T01960100  RH  054%=      5-min Rain = 0
KPD2 111440Z 16000KT 20/10 A3023 RMK A01 T01950100  RH  054%=      5-min Rain = 0
KPD2 111441Z 19001KT 19/10 A3023 RMK A01 T01940100  RH  054%=      5-min Rain = 0
KPD2 111442Z 20001KT 20/10 A3023 RMK A01 T01950100  RH  054%=      5-min Rain = 0
KPD2 111443Z 20001KT 20/10 A3023 RMK A01 T01950100  RH  054%=      5-min Rain = 0
KPD2 111444Z 20001KT 20/10 A3023 RMK A01 T01960102  RH  055%=      5-min Rain = 0
KPD2 111445Z 20001KT 20/10 A3023 RMK A01 T01970102  RH  054%=      5-min Rain = 0
KPD2 111446Z 18001KT 20/10 A3023 RMK A01 T01970100  RH  053%=      5-min Rain = 0
KPD2 111447Z 00000KT 20/10 A3023 RMK A01 T01980100  RH  053%=      5-min Rain = 0
KPD2 111448Z 00000KT 20/10 A3023 RMK A01 T01990100  RH  053%=      5-min Rain = 0
KPD2 111449Z 07000KT 20/10 A3023 RMK A01 T02000101  RH  053%=      5-min Rain = 0
KPD2 111450Z 07000KT 20/10 A3023 RMK A01 T02010102  RH  053%=      5-min Rain = 0
KPD2 111451Z 08000KT 20/10 A3023 RMK A01 T02030102  RH  052%=      5-min Rain = 0
KPD2 111452Z 02001KT 21/10 A3023 RMK A01 T02050102  RH  052%=      5-min Rain = 0
KPD2 111453Z 01001KT 21/10 A3023 RMK A01 T02060103  RH  051%=      5-min Rain = 0
KPD2 111454Z 01001KT 21/10 A3023 RMK A01 T02070103  RH  051%=      5-min Rain = 0
KPD2 111455Z 01000KT 21/10 A3023 RMK A01 T02080103  RH  051%=      5-min Rain = 0
KPD2 111456Z 05001KT 21/10 A3023 RMK A01 T02090103  RH  051%=      5-min Rain = 0
KPD2 111457Z 06001KT 21/11 A3023 RMK A01 T02110105  RH  051%=      5-min Rain = 0
KPD2 111458Z 03002KT 21/11 A3023 RMK A01 T02120109  RH  052%=      5-min Rain = 0
KPD2 111459Z 03001KT 21/11 A3023 RMK A01 T02140106  RH  050%=      5-min Rain = 0
KPD2 111500Z 03001KT 22/11 A3023 RMK A01 T02150107  RH  050%=      5-min Rain = 0
KPD2 111501Z 04001KT 22/11 A3023 RMK A01 T02170107  RH  050%=      5-min Rain = 0
KPD2 111502Z 04001KT 22/11 A3023 RMK A01 T02180106  RH  049%=      5-min Rain = 0
KPD2 111503Z 05001KT 22/11 A3023 RMK A01 T02190105  RH  048%=      5-min Rain = 0
KPD2 111504Z 07001KT 22/11 A3023 RMK A01 T02200106  RH  048%=      5-min Rain = 0
KPD2 111505Z 06001KT 22/11 A3022 RMK A01 T02210107  RH  048%=      5-min Rain = 0
KPD2 111506Z 00001KT 22/11 A3022 RMK A01 T02220107  RH  048%=      5-min Rain = 0
KPD2 111507Z 01002KT 22/11 A3022 RMK A01 T02220105  RH  047%=      5-min Rain = 0
KPD2 111508Z 02003KT 22/11 A3022 RMK A01 T02220109  RH  048%=      5-min Rain = 0
KPD2 111509Z 01002KT 22/11 A3022 RMK A01 T02240108  RH  048%=      5-min Rain = 0
KPD2 111510Z 02002KT 22/11 A3022 RMK A01 T02240110  RH  048%=      5-min Rain = 0
KPD2 111511Z 04002KT 23/11 A3022 RMK A01 T02260107  RH  047%=      5-min Rain = 0
KPD2 111512Z 03002KT 23/11 A3022 RMK A01 T02260107  RH  047%=      5-min Rain = 0
KPD2 111513Z 05002KT 23/11 A3022 RMK A01 T02260108  RH  047%=      5-min Rain = 0
KPD2 111514Z 05002KT 23/11 A3022 RMK A01 T02280107  RH  046%=      5-min Rain = 0
KPD2 111515Z 05002KT 23/11 A3022 RMK A01 T02290108  RH  046%=      5-min Rain = 0
KPD2 111516Z 33002KT 23/11 A3022 RMK A01 T02310110  RH  046%=      5-min Rain = 0
KPD2 111517Z 34001KT 23/11 A3022 RMK A01 T02330110  RH  046%=      5-min Rain = 0
KPD2 111518Z 00001KT 23/11 A3022 RMK A01 T02330109  RH  046%=      5-min Rain = 0
KPD2 111519Z 05001KT 23/11 A3022 RMK A01 T02340112  RH  046%=      5-min Rain = 0
KPD2 111520Z 16001KT 24/11 A3022 RMK A01 T02350108  RH  044%=      5-min Rain = 0
KPD2 111521Z 24001KT 24/11 A3022 RMK A01 T02350108  RH  045%=      5-min Rain = 0
KPD2 111522Z 34002KT 24/11 A3022 RMK A01 T02360114  RH  046%=      5-min Rain = 0
KPD2 111523Z 33003KT 24/11 A3022 RMK A01 T02390114  RH  045%=      5-min Rain = 0
KPD2 111524Z 34002KT 24/11 A3022 RMK A01 T02390113  RH  045%=      5-min Rain = 0
KPD2 111525Z 34002KT 24/11 A3022 RMK A01 T02390112  RH  045%=      5-min Rain = 0
KPD2 111526Z 36003KT 24/11 A3022 RMK A01 T02390110  RH  044%=      5-min Rain = 0
KPD2 111527Z 32003KT 24/11 A3022 RMK A01 T02390111  RH  044%=      5-min Rain = 0
KPD2 111528Z 36003KT 24/11 A3022 RMK A01 T02390108  RH  044%=      5-min Rain = 0
KPD2 111529Z 34002KT 24/11 A3022 RMK A01 T02390113  RH  045%=      5-min Rain = 0
KPD2 111530Z 27002KT 24/11 A3022 RMK A01 T02400111  RH  044%=      5-min Rain = 0
KPD2 111531Z 26001KT 24/11 A3022 RMK A01 T02420111  RH  044%=      5-min Rain = 0
KPD2 111532Z 23002KT 24/11 A3022 RMK A01 T02440112  RH  044%=      5-min Rain = 0
KPD2 111533Z 22002KT 25/11 A3022 RMK A01 T02450110  RH  043%=      5-min Rain = 0
KPD2 111534Z 28001KT 25/11 A3022 RMK A01 T02460112  RH  043%=      5-min Rain = 0
KPD2 111535Z 26002KT 25/12 A3022 RMK A01 T02470115  RH  043%=      5-min Rain = 0
KPD2 111536Z 25001KT 25/11 A3022 RMK A01 T02490111  RH  042%=      5-min Rain = 0
KPD2 111537Z 24000KT 25/11 A3022 RMK A01 T02490111  RH  042%=      5-min Rain = 0
KPD2 111538Z 31001KT 25/11 A3022 RMK A01 T02490112  RH  042%=      5-min Rain = 0
KPD2 111539Z 33001KT 25/11 A3022 RMK A01 T02510112  RH  042%=      5-min Rain = 0
KPD2 111540Z 03000KT 25/11 A3022 RMK A01 T02510111  RH  042%=      5-min Rain = 0
KPD2 111541Z 29000KT 25/11 A3022 RMK A01 T02510113  RH  042%=      5-min Rain = 0
KPD2 111542Z 26003KT 25/11 A3022 RMK A01 T02520113  RH  042%=      5-min Rain = 0
KPD2 111543Z 27002KT 25/11 A3022 RMK A01 T02530112  RH  041%=      5-min Rain = 0
KPD2 111544Z 24001KT 25/11 A3022 RMK A01 T02530111  RH  041%=      5-min Rain = 0
KPD2 111545Z 25001KT 26/11 A3022 RMK A01 T02550112  RH  041%=      5-min Rain = 0
KPD2 111546Z 27002KT 26/12 A3022 RMK A01 T02580116  RH  041%=      5-min Rain = 0
KPD2 111547Z 27003KT 26/11 A3022 RMK A01 T02590111  RH  039%=      5-min Rain = 0
KPD2 111548Z 30002KT 26/11 A3022 RMK A01 T02600110  RH  039%=      5-min Rain = 0
KPD2 111549Z 35002KT 26/11 A3022 RMK A01 T02600111  RH  039%=      5-min Rain = 0
KPD2 111550Z 29002KT 26/11 A3022 RMK A01 T02610112  RH  039%=      5-min Rain = 0
KPD2 111551Z 27003KT 26/11 A3022 RMK A01 T02610113  RH  040%=      5-min Rain = 0
KPD2 111552Z 29003KT 26/12 A3022 RMK A01 T02620116  RH  040%=      5-min Rain = 0
KPD2 111553Z 29003KT 26/11 A3022 RMK A01 T02630114  RH  039%=      5-min Rain = 0
KPD2 111554Z 30003KT 26/11 A3022 RMK A01 T02630113  RH  039%=      5-min Rain = 0
KPD2 111555Z 29002KT 26/11 A3021 RMK A01 T02640111  RH  039%=      5-min Rain = 0
KPD2 111556Z 31005KT 26/11 A3021 RMK A01 T02640114  RH  039%=      5-min Rain = 0
KPD2 111557Z 30005KT 27/12 A3021 RMK A01 T02650119  RH  040%=      5-min Rain = 0
KPD2 111558Z 29006KT 27/12 A3021 RMK A01 T02670118  RH  039%=      5-min Rain = 0
KPD2 111559Z 29007KT 27/11 A3021 RMK A01 T02670112  RH  038%=      5-min Rain = 0
KPD2 111600Z 28005KT 27/11 A3021 RMK A01 T02660113  RH  038%=      5-min Rain = 0
KPD2 111601Z 27006KT 27/12 A3021 RMK A01 T02670116  RH  039%=      5-min Rain = 0
KPD2 111602Z 28005KT 27/12 A3021 RMK A01 T02690116  RH  039%=      5-min Rain = 0
KPD2 111603Z 28006KT 27/11 A3021 RMK A01 T02690113  RH  038%=      5-min Rain = 0
KPD2 111604Z 28006KT 27/11 A3021 RMK A01 T02670114  RH  038%=      5-min Rain = 0
KPD2 111605Z 29006KT 27/12 A3021 RMK A01 T02660115  RH  039%=      5-min Rain = 0
KPD2 111606Z 28005KT 27/11 A3021 RMK A01 T02670113  RH  038%=      5-min Rain = 0
KPD2 111607Z 27006KT 27/11 A3021 RMK A01 T02680113  RH  038%=      5-min Rain = 0
KPD2 111608Z 28006KT 27/12 A3021 RMK A01 T02680116  RH  039%=      5-min Rain = 0
KPD2 111609Z 28006KT 27/11 A3021 RMK A01 T02690114  RH  038%=      5-min Rain = 0
KPD2 111610Z 30004KT 27/11 A3021 RMK A01 T02690114  RH  038%=      5-min Rain = 0
KPD2 111611Z 28004KT 27/12 A3021 RMK A01 T02680115  RH  038%=      5-min Rain = 0
KPD2 111612Z 28006KT 27/12 A3021 RMK A01 T02690116  RH  038%=      5-min Rain = 0
KPD2 111613Z 31004KT 27/12 A3021 RMK A01 T02700116  RH  038%=      5-min Rain = 0
KPD2 111614Z 30005KT 27/12 A3021 RMK A01 T02710115  RH  038%=      5-min Rain = 0
KPD2 111615Z 30004KT 27/12 A3021 RMK A01 T02710117  RH  038%=      5-min Rain = 0
KPD2 111616Z 32006KT 27/12 A3021 RMK A01 T02740119  RH  038%=      5-min Rain = 0
KPD2 111617Z 32006KT 28/12 A3021 RMK A01 T02760117  RH  037%=      5-min Rain = 0
KPD2 111618Z 28004KT 28/12 A3021 RMK A01 T02760116  RH  037%=      5-min Rain = 0
KPD2 111619Z 30004KT 28/12 A3021 RMK A01 T02750116  RH  037%=      5-min Rain = 0
KPD2 111620Z 31006KT 28/12 A3021 RMK A01 T02750118  RH  038%=      5-min Rain = 0
KPD2 111621Z 31008KT 28/12 A3021 RMK A01 T02750119  RH  038%=      5-min Rain = 0
KPD2 111622Z 30007KT 28/12 A3021 RMK A01 T02760116  RH  037%=      5-min Rain = 0
KPD2 111623Z 32006KT 28/12 A3021 RMK A01 T02750119  RH  038%=      5-min Rain = 0
KPD2 111624Z 31007KT 28/12 A3021 RMK A01 T02760119  RH  038%=      5-min Rain = 0
KPD2 111625Z 32004KT 28/12 A3021 RMK A01 T02770118  RH  037%=      5-min Rain = 0
KPD2 111626Z 32004KT 28/12 A302 RMK A01 T02780118  RH  037%=      5-min Rain = 0
KPD2 111627Z 32006KT 28/12 A302 RMK A01 T02780119  RH  037%=      5-min Rain = 0
KPD2 111628Z 32006KT 28/12 A302 RMK A01 T02800120  RH  037%=      5-min Rain = 0
KPD2 111629Z 32004KT 28/12 A302 RMK A01 T02810120  RH  037%=      5-min Rain = 0
KPD2 111630Z 28003KT 28/12 A302 RMK A01 T02830120  RH  036%=      5-min Rain = 0
KPD2 111631Z 30005KT 28/12 A302 RMK A01 T02840119  RH  036%=      5-min Rain = 0
KPD2 111632Z 30008KT 28/12 A302 RMK A01 T02830118  RH  036%=      5-min Rain = 0
KPD2 111633Z 31004KT 28/12 A302 RMK A01 T02830118  RH  036%=      5-min Rain = 0
KPD2 111634Z 32006KT 28/12 A302 RMK A01 T02820118  RH  036%=      5-min Rain = 0
KPD2 111635Z 33007KT 28/12 A302 RMK A01 T02830120  RH  036%=      5-min Rain = 0
KPD2 111636Z 31006KT 28/12 A302 RMK A01 T02840119  RH  036%=      5-min Rain = 0
KPD2 111637Z 31008KT 28/12 A302 RMK A01 T02840119  RH  036%=      5-min Rain = 0
KPD2 111638Z 30007KT 28/12 A302 RMK A01 T02840118  RH  036%=      5-min Rain = 0
KPD2 111639Z 30007KT 28/12 A302 RMK A01 T02830118  RH  036%=      5-min Rain = 0
KPD2 111640Z 26005KT 28/12 A302 RMK A01 T02830118  RH  036%=      5-min Rain = 0
KPD2 111641Z 24007KT 29/12 A302 RMK A01 T02850115  RH  035%=      5-min Rain = 0
KPD2 111642Z 28009KT 29/12 A302 RMK A01 T02850116  RH  035%=      5-min Rain = 0
KPD2 111643Z 29008KT 29/12 A302 RMK A01 T02850116  RH  035%=      5-min Rain = 0
KPD2 111644Z 29005KT 28/12 A302 RMK A01 T02840115  RH  035%=      5-min Rain = 0
KPD2 111645Z 29005KT 28/12 A302 RMK A01 T02820117  RH  036%=      5-min Rain = 0
KPD2 111646Z 28003KT 28/12 A302 RMK A01 T02830120  RH  036%=      5-min Rain = 0
KPD2 111647Z 29004KT 29/12 A302 RMK A01 T02860120  RH  036%=      5-min Rain = 0
KPD2 111648Z 26004KT 29/12 A302 RMK A01 T02880117  RH  035%=      5-min Rain = 0
KPD2 111649Z 23006KT 29/12 A302 RMK A01 T02880116  RH  034%=      5-min Rain = 0
KPD2 111650Z 23005KT 29/11 A302 RMK A01 T02880114  RH  034%=      5-min Rain = 0
KPD2 111651Z 31005G10KT 29/12 A302 RMK A01 T02870116  RH  035%=      5-min Rain = 0
KPD2 111652Z 32007KT 29/12 A302 RMK A01 T02870117  RH  035%=      5-min Rain = 0
KPD2 111653Z 32004KT 29/12 A302 RMK A01 T02870116  RH  035%=      5-min Rain = 0
KPD2 111654Z 31004KT 29/12 A302 RMK A01 T02880118  RH  035%=      5-min Rain = 0
KPD2 111655Z 31005KT 29/12 A302 RMK A01 T02890118  RH  035%=      5-min Rain = 0
KPD2 111656Z 32007KT 29/12 A302 RMK A01 T02910122  RH  035%=      5-min Rain = 0
KPD2 111657Z 32008KT 29/12 A3019 RMK A01 T02930119  RH  034%=      5-min Rain = 0
KPD2 111658Z 30007KT 29/12 A302 RMK A01 T02940116  RH  033%=      5-min Rain = 0
KPD2 111659Z 32005KT 29/12 A302 RMK A01 T02930119  RH  034%=      5-min Rain = 0
KPD2 111700Z 29005KT 29/11 A302 RMK A01 T02920114  RH  033%=      5-min Rain = 0
KPD2 111701Z 28005KT 29/12 A302 RMK A01 T02920115  RH  034%=      5-min Rain = 0
KPD2 111702Z 30005KT 29/12 A302 RMK A01 T02910117  RH  034%=      5-min Rain = 0
KPD2 111703Z 29004KT 29/12 A3019 RMK A01 T02920118  RH  034%=      5-min Rain = 0
KPD2 111704Z 29007KT 29/12 A3019 RMK A01 T02930119  RH  034%=      5-min Rain = 0
KPD2 111705Z 31008KT 29/12 A3019 RMK A01 T02930119  RH  034%=      5-min Rain = 0
KPD2 111706Z 29007KT 29/12 A302 RMK A01 T02940115  RH  033%=      5-min Rain = 0
KPD2 111707Z 31007KT 29/12 A302 RMK A01 T02930115  RH  033%=      5-min Rain = 0
KPD2 111708Z 32005KT 29/12 A302 RMK A01 T02920116  RH  034%=      5-min Rain = 0
KPD2 111709Z 31004KT 29/12 A302 RMK A01 T02930121  RH  035%=      5-min Rain = 0
KPD2 111710Z 30009KT 30/12 A302 RMK A01 T02970122  RH  034%=      5-min Rain = 0
KPD2 111711Z 27006KT 30/12 A302 RMK A01 T02970115  RH  032%=      5-min Rain = 0
KPD2 111712Z 27005KT 30/11 A302 RMK A01 T02950114  RH  033%=      5-min Rain = 0
KPD2 111713Z 31006KT 29/12 A302 RMK A01 T02940118  RH  034%=      5-min Rain = 0
KPD2 111714Z 30006KT 30/12 A302 RMK A01 T02950118  RH  033%=      5-min Rain = 0
KPD2 111715Z 31005KT 30/12 A302 RMK A01 T02960116  RH  033%=      5-min Rain = 0
KPD2 111716Z 35004KT 30/11 A3019 RMK A01 T02960114  RH  033%=      5-min Rain = 0
KPD2 111717Z 35004KT 30/12 A3019 RMK A01 T02960119  RH  034%=      5-min Rain = 0
KPD2 111718Z 27004KT 30/12 A3019 RMK A01 T02990119  RH  033%=      5-min Rain = 0
KPD2 111719Z 27004KT 30/12 A3019 RMK A01 T03020116  RH  032%=      5-min Rain = 0
KPD2 111720Z 29002KT 30/12 A3019 RMK A01 T03020116  RH  032%=      5-min Rain = 0
KPD2 111721Z 28004KT 30/11 A3019 RMK A01 T02990110  RH  031%=      5-min Rain = 0
KPD2 111722Z 28004KT 30/11 A3019 RMK A01 T02950111  RH  032%=      5-min Rain = 0
KPD2 111723Z 26003KT 29/11 A3019 RMK A01 T02940113  RH  033%=      5-min Rain = 0
KPD2 111724Z 30005KT 30/12 A3019 RMK A01 T02950117  RH  033%=      5-min Rain = 0
KPD2 111725Z 31004KT 30/12 A3019 RMK A01 T02980116  RH  032%=      5-min Rain = 0
KPD2 111726Z 32002KT 30/12 A3019 RMK A01 T02980115  RH  032%=      5-min Rain = 0
KPD2 111727Z 33001KT 30/12 A3019 RMK A01 T02990120  RH  033%=      5-min Rain = 0
KPD2 111728Z 33003KT 30/12 A3019 RMK A01 T03020115  RH  032%=      5-min Rain = 0
KPD2 111729Z 00002KT 30/12 A3019 RMK A01 T03030119  RH  032%=      5-min Rain = 0
KPD2 111730Z 00002KT 31/12 A3019 RMK A01 T03050120  RH  032%=      5-min Rain = 0
KPD2 111731Z 03002KT 31/12 A3019 RMK A01 T03070118  RH  031%=      5-min Rain = 0
KPD2 111732Z 30003KT 31/12 A3019 RMK A01 T03080117  RH  031%=      5-min Rain = 0
KPD2 111733Z 23002KT 31/12 A3019 RMK A01 T03080118  RH  031%=      5-min Rain = 0
KPD2 111734Z 24004KT 31/12 A3019 RMK A01 T03070116  RH  031%=      5-min Rain = 0
KPD2 111735Z 26004KT 30/11 A3019 RMK A01 T03040114  RH  031%=      5-min Rain = 0
KPD2 111736Z 27002KT 30/12 A3019 RMK A01 T03020115  RH  031%=      5-min Rain = 0
KPD2 111737Z 25001KT 30/12 A3019 RMK A01 T03030117  RH  032%=      5-min Rain = 0
KPD2 111738Z 31004KT 31/12 A3019 RMK A01 T03050116  RH  031%=      5-min Rain = 0
KPD2 111739Z 29006G11KT 30/12 A3019 RMK A01 T03040115  RH  031%=      5-min Rain = 0
KPD2 111740Z 32008KT 30/11 A3019 RMK A01 T03030113  RH  031%=      5-min Rain = 0
KPD2 111741Z 33005KT 30/12 A3018 RMK A01 T03030115  RH  031%=      5-min Rain = 0
KPD2 111742Z 31005KT 31/12 A3018 RMK A01 T03050118  RH  032%=      5-min Rain = 0
KPD2 111743Z 25003KT 31/12 A3018 RMK A01 T03070117  RH  031%=      5-min Rain = 0
KPD2 111744Z 25002KT 31/12 A3018 RMK A01 T03070118  RH  031%=      5-min Rain = 0
KPD2 111745Z 26003KT 31/12 A3018 RMK A01 T03080116  RH  031%=      5-min Rain = 0
KPD2 111746Z 23002KT 31/11 A3018 RMK A01 T03090114  RH  030%=      5-min Rain = 0
KPD2 111747Z 33001KT 31/12 A3018 RMK A01 T03090115  RH  030%=      5-min Rain = 0
KPD2 111748Z 33002KT 31/12 A3018 RMK A01 T03100120  RH  031%=      5-min Rain = 0
KPD2 111749Z 35004KT 31/12 A3018 RMK A01 T03120119  RH  031%=      5-min Rain = 0
KPD2 111750Z 01005KT 31/12 A3018 RMK A01 T03140120  RH  030%=      5-min Rain = 0
KPD2 111751Z 00006KT 32/12 A3018 RMK A01 T03150120  RH  030%=      5-min Rain = 0
KPD2 111752Z 33007KT 32/12 A3018 RMK A01 T03180122  RH  030%=      5-min Rain = 0
KPD2 111753Z 27007KT 32/12 A3018 RMK A01 T03200122  RH  030%=      5-min Rain = 0
KPD2 111754Z 21003KT 32/12 A3018 RMK A01 T03190115  RH  029%=      5-min Rain = 0
KPD2 111755Z 26003KT 32/11 A3018 RMK A01 T03150113  RH  029%=      5-min Rain = 0
KPD2 111756Z 29007KT 31/12 A3018 RMK A01 T03120117  RH  030%=      5-min Rain = 0
KPD2 111757Z 31007KT 31/11 A3018 RMK A01 T03090114  RH  030%=      5-min Rain = 0
KPD2 111758Z 29006KT 31/12 A3018 RMK A01 T03060117  RH  031%=      5-min Rain = 0
KPD2 111759Z 29005KT 31/12 A3018 RMK A01 T03070115  RH  031%=      5-min Rain = 0
KPD2 111800Z 28002KT 31/11 A3018 RMK A01 T03060112  RH  030%=      5-min Rain = 0
KPD2 111801Z 26004KT 31/12 A3018 RMK A01 T03060115  RH  031%=      5-min Rain = 0
KPD2 111802Z 25004KT 31/12 A3018 RMK A01 T03070118  RH  031%=      5-min Rain = 0
KPD2 111803Z 28002KT 31/11 A3018 RMK A01 T03090114  RH  030%=      5-min Rain = 0
KPD2 111804Z 35005KT 31/12 A3018 RMK A01 T03100117  RH  030%=      5-min Rain = 0
KPD2 111805Z 01003KT 31/12 A3018 RMK A01 T03120119  RH  031%=      5-min Rain = 0
KPD2 111806Z 03002KT 31/11 A3018 RMK A01 T03130113  RH  029%=      5-min Rain = 0
KPD2 111807Z 08002KT 31/11 A3018 RMK A01 T03130114  RH  029%=      5-min Rain = 0
KPD2 111808Z 10002KT 31/12 A3018 RMK A01 T03140116  RH  030%=      5-min Rain = 0
KPD2 111809Z 10001KT 32/12 A3018 RMK A01 T03160115  RH  029%=      5-min Rain = 0
KPD2 111810Z 11002KT 32/12 A3018 RMK A01 T03180116  RH  029%=      5-min Rain = 0
KPD2 111811Z 12002KT 32/12 A3018 RMK A01 T03190118  RH  029%=      5-min Rain = 0
KPD2 111812Z 28001KT 32/12 A3018 RMK A01 T03200116  RH  029%=      5-min Rain = 0
KPD2 111813Z 27002KT 32/12 A3018 RMK A01 T03190115  RH  029%=      5-min Rain = 0
KPD2 111814Z 33005KT 32/12 A3018 RMK A01 T03200122  RH  030%=      5-min Rain = 0
KPD2 111815Z 31005KT 32/12 A3018 RMK A01 T03210115  RH  028%=      5-min Rain = 0
KPD2 111816Z 16001KT 32/11 A3018 RMK A01 T03150112  RH  029%=      5-min Rain = 0
KPD2 111817Z 36003KT 31/12 A3018 RMK A01 T03140118  RH  030%=      5-min Rain = 0
KPD2 111818Z 35007KT 32/12 A3018 RMK A01 T03170119  RH  030%=      5-min Rain = 0
KPD2 111819Z 33005KT 32/12 A3018 RMK A01 T03200119  RH  029%=      5-min Rain = 0
KPD2 111820Z 34004KT 32/12 A3018 RMK A01 T03210117  RH  029%=      5-min Rain = 0
KPD2 111821Z 32003KT 32/12 A3017 RMK A01 T03220118  RH  029%=      5-min Rain = 0
KPD2 111822Z 04003KT 32/11 A3017 RMK A01 T03220111  RH  028%=      5-min Rain = 0
KPD2 111823Z 05003KT 32/11 A3017 RMK A01 T03190110  RH  028%=      5-min Rain = 0
KPD2 111824Z 08002KT 32/11 A3017 RMK A01 T03180112  RH  028%=      5-min Rain = 0
KPD2 111825Z 34001KT 32/11 A3017 RMK A01 T03190111  RH  028%=      5-min Rain = 0
KPD2 111826Z 33003KT 32/12 A3017 RMK A01 T03200115  RH  029%=      5-min Rain = 0
KPD2 111827Z 00004KT 32/12 A3017 RMK A01 T03210118  RH  029%=      5-min Rain = 0
KPD2 111828Z 35004KT 32/12 A3017 RMK A01 T03230118  RH  029%=      5-min Rain = 0
KPD2 111829Z 35005KT 33/12 A3017 RMK A01 T03260117  RH  028%=      5-min Rain = 0
KPD2 111830Z 30006KT 32/12 A3017 RMK A01 T03240118  RH  028%=      5-min Rain = 0
KPD2 111831Z 32005KT 32/11 A3017 RMK A01 T03220113  RH  028%=      5-min Rain = 0
KPD2 111832Z 36004KT 32/12 A3017 RMK A01 T03210116  RH  029%=      5-min Rain = 0
KPD2 111833Z 00003KT 32/12 A3017 RMK A01 T03220116  RH  028%=      5-min Rain = 0
KPD2 111834Z 34004KT 33/12 A3016 RMK A01 T03250117  RH  028%=      5-min Rain = 0
KPD2 111835Z 30003KT 33/11 A3016 RMK A01 T03250109  RH  027%=      5-min Rain = 0
KPD2 111836Z 33001KT 32/11 A3016 RMK A01 T03210110  RH  027%=      5-min Rain = 0
KPD2 111837Z 21001KT 32/11 A3016 RMK A01 T03200106  RH  027%=      5-min Rain = 0
KPD2 111838Z 24003KT 32/11 A3016 RMK A01 T03180107  RH  027%=      5-min Rain = 0
KPD2 111839Z 25005KT 32/11 A3016 RMK A01 T03180113  RH  029%=      5-min Rain = 0
KPD2 111840Z 25005KT 32/11 A3016 RMK A01 T03170114  RH  029%=      5-min Rain = 0
KPD2 111841Z 26003KT 32/11 A3016 RMK A01 T03160113  RH  029%=      5-min Rain = 0
KPD2 111842Z 27003KT 32/12 A3016 RMK A01 T03160117  RH  029%=      5-min Rain = 0
KPD2 111843Z 26005KT 32/12 A3016 RMK A01 T03190118  RH  029%=      5-min Rain = 0
KPD2 111844Z 25004KT 32/12 A3016 RMK A01 T03210115  RH  028%=      5-min Rain = 0
KPD2 111845Z 24003KT 32/12 A3016 RMK A01 T03200115  RH  029%=      5-min Rain = 0
KPD2 111846Z 27002KT 32/11 A3016 RMK A01 T03190112  RH  028%=      5-min Rain = 0
KPD2 111847Z 25002KT 32/11 A3016 RMK A01 T03180110  RH  028%=      5-min Rain = 0
KPD2 111848Z 23002KT 32/11 A3016 RMK A01 T03160111  RH  028%=      5-min Rain = 0
KPD2 111849Z 27003KT 31/11 A3016 RMK A01 T03140109  RH  028%=      5-min Rain = 0
KPD2 111850Z 33004KT 31/12 A3016 RMK A01 T03140115  RH  029%=      5-min Rain = 0
KPD2 111851Z 33004KT 32/12 A3016 RMK A01 T03180118  RH  029%=      5-min Rain = 0
KPD2 111852Z 32002KT 32/11 A3016 RMK A01 T03210112  RH  028%=      5-min Rain = 0
KPD2 111853Z 33001KT 32/11 A3016 RMK A01 T03190112  RH  028%=      5-min Rain = 0
KPD2 111854Z 32001KT 32/11 A3016 RMK A01 T03190113  RH  028%=      5-min Rain = 0
KPD2 111855Z 30002KT 32/11 A3016 RMK A01 T03190111  RH  028%=      5-min Rain = 0
KPD2 111856Z 02002KT 32/11 A3016 RMK A01 T03190114  RH  028%=      5-min Rain = 0
KPD2 111857Z 03004KT 32/12 A3016 RMK A01 T03220117  RH  029%=      5-min Rain = 0
KPD2 111858Z 04003KT 33/12 A3016 RMK A01 T03250115  RH  028%=      5-min Rain = 0
KPD2 111859Z 00004KT 33/12 A3016 RMK A01 T03270118  RH  028%=      5-min Rain = 0
KPD2 111900Z 33004KT 33/12 A3015 RMK A01 T03300115  RH  027%=      5-min Rain = 0
KPD2 111901Z 35006KT 33/11 A3015 RMK A01 T03300114  RH  027%=      5-min Rain = 0
KPD2 111902Z 34005KT 33/12 A3015 RMK A01 T03300117  RH  027%=      5-min Rain = 0
KPD2 111903Z 34002KT 33/11 A3015 RMK A01 T03290114  RH  027%=      5-min Rain = 0
KPD2 111904Z 34002KT 33/12 A3015 RMK A01 T03290119  RH  028%=      5-min Rain = 0
KPD2 111905Z 36001KT 33/12 A3015 RMK A01 T03310116  RH  027%=      5-min Rain = 0
KPD2 111906Z 09000KT 33/11 A3015 RMK A01 T03320114  RH  026%=      5-min Rain = 0
KPD2 111907Z 01001KT 33/11 A3015 RMK A01 T03330112  RH  026%=      5-min Rain = 0
KPD2 111908Z 00003KT 33/11 A3015 RMK A01 T03330113  RH  026%=      5-min Rain = 0
KPD2 111909Z 35001KT 33/11 A3015 RMK A01 T03340112  RH  026%=      5-min Rain = 0
KPD2 111910Z 01002KT 33/11 A3015 RMK A01 T03340114  RH  026%=      5-min Rain = 0
KPD2 111911Z 31002KT 33/11 A3015 RMK A01 T03340112  RH  026%=      5-min Rain = 0
KPD2 111912Z 29004KT 33/12 A3015 RMK A01 T03330115  RH  027%=      5-min Rain = 0
KPD2 111913Z 27005KT 33/11 A3015 RMK A01 T03310113  RH  026%=      5-min Rain = 0
KPD2 111914Z 27005KT 33/11 A3015 RMK A01 T03270113  RH  027%=      5-min Rain = 0
KPD2 111915Z 25004KT 33/12 A3015 RMK A01 T03280116  RH  027%=      5-min Rain = 0
KPD2 111916Z 25006KT 33/11 A3015 RMK A01 T03290114  RH  027%=      5-min Rain = 0
KPD2 111917Z 27005KT 33/11 A3015 RMK A01 T03280113  RH  027%=      5-min Rain = 0
KPD2 111918Z 28003KT 33/11 A3015 RMK A01 T03270112  RH  027%=      5-min Rain = 0
KPD2 111919Z 32001KT 33/11 A3015 RMK A01 T03250108  RH  026%=      5-min Rain = 0
KPD2 111920Z 32001KT 32/11 A3015 RMK A01 T03230110  RH  027%=      5-min Rain = 0
KPD2 111921Z 02002KT 32/11 A3015 RMK A01 T03210107  RH  027%=      5-min Rain = 0
KPD2 111922Z 29002KT 32/11 A3015 RMK A01 T03180112  RH  028%=      5-min Rain = 0
KPD2 111923Z 30002KT 32/11 A3015 RMK A01 T03200110  RH  028%=      5-min Rain = 0
KPD2 111924Z 33001KT 32/11 A3015 RMK A01 T03200109  RH  027%=      5-min Rain = 0
KPD2 111925Z 34001KT 32/11 A3015 RMK A01 T03200109  RH  027%=      5-min Rain = 0
KPD2 111926Z 26001KT 32/11 A3014 RMK A01 T03190107  RH  027%=      5-min Rain = 0
KPD2 111927Z 30001KT 32/11 A3014 RMK A01 T03180107  RH  027%=      5-min Rain = 0
KPD2 111928Z 22001KT 32/11 A3014 RMK A01 T03190110  RH  028%=      5-min Rain = 0
KPD2 111929Z 28004KT 32/11 A3014 RMK A01 T03210113  RH  028%=      5-min Rain = 0
KPD2 111930Z 28004KT 32/11 A3014 RMK A01 T03220114  RH  028%=      5-min Rain = 0
KPD2 111931Z 29002KT 32/11 A3014 RMK A01 T03230112  RH  028%=      5-min Rain = 0
KPD2 111932Z 29002KT 32/11 A3014 RMK A01 T03240111  RH  027%=      5-min Rain = 0
KPD2 111933Z 33003KT 32/11 A3014 RMK A01 T03220111  RH  027%=      5-min Rain = 0
KPD2 111934Z 01003KT 32/11 A3014 RMK A01 T03210113  RH  028%=      5-min Rain = 0
KPD2 111935Z 04002KT 32/11 A3014 RMK A01 T03240112  RH  027%=      5-min Rain = 0
KPD2 111936Z 02002KT 33/11 A3014 RMK A01 T03270113  RH  027%=      5-min Rain = 0
KPD2 111937Z 04003KT 33/11 A3014 RMK A01 T03300114  RH  027%=      5-min Rain = 0
KPD2 111938Z 09001KT 33/11 A3014 RMK A01 T03300112  RH  026%=      5-min Rain = 0
KPD2 111939Z 20002KT 33/11 A3014 RMK A01 T03280112  RH  027%=      5-min Rain = 0
KPD2 111940Z 21001KT 33/11 A3013 RMK A01 T03290114  RH  027%=      5-min Rain = 0
KPD2 111941Z 04002KT 33/11 A3013 RMK A01 T03300114  RH  027%=      5-min Rain = 0
KPD2 111942Z 03002KT 33/11 A3013 RMK A01 T03310113  RH  027%=      5-min Rain = 0
KPD2 111943Z 11003KT 33/12 A3013 RMK A01 T03310116  RH  027%=      5-min Rain = 0
KPD2 111944Z 16002KT 33/11 A3013 RMK A01 T03320113  RH  026%=      5-min Rain = 0
KPD2 111945Z 15002KT 33/11 A3013 RMK A01 T03320112  RH  026%=      5-min Rain = 0
KPD2 111946Z 14002KT 33/11 A3013 RMK A01 T03300111  RH  026%=      5-min Rain = 0
KPD2 111947Z 13002KT 33/11 A3013 RMK A01 T03290111  RH  026%=      5-min Rain = 0
KPD2 111948Z 14001KT 33/11 A3013 RMK A01 T03290110  RH  026%=      5-min Rain = 0
KPD2 111949Z 31002KT 33/11 A3013 RMK A01 T03290110  RH  026%=      5-min Rain = 0
KPD2 111950Z 29004KT 33/11 A3013 RMK A01 T03260111  RH  027%=      5-min Rain = 0
KPD2 111951Z 27002KT 33/11 A3013 RMK A01 T03260112  RH  027%=      5-min Rain = 0
KPD2 111952Z 27002KT 33/11 A3013 RMK A01 T03270114  RH  027%=      5-min Rain = 0
KPD2 111953Z 27002KT 33/12 A3013 RMK A01 T03280115  RH  027%=      5-min Rain = 0
KPD2 111954Z 27003KT 33/12 A3013 RMK A01 T03300118  RH  027%=      5-min Rain = 0
KPD2 111955Z 29003KT 33/12 A3013 RMK A01 T03340119  RH  027%=      5-min Rain = 0
KPD2 111956Z 29004KT 34/12 A3013 RMK A01 T03380122  RH  027%=      5-min Rain = 0
KPD2 111957Z 28003KT 34/12 A3013 RMK A01 T03410117  RH  026%=      5-min Rain = 0
KPD2 111958Z 30000KT 34/11 A3013 RMK A01 T03370113  RH  026%=      5-min Rain = 0
KPD2 111959Z 27001KT 34/11 A3013 RMK A01 T03350113  RH  026%=      5-min Rain = 0
KPD2 112000Z 24001KT 33/11 A3013 RMK A01 T03340112  RH  026%=      5-min Rain = 0
KPD2 112001Z 25003KT 33/11 A3013 RMK A01 T03330114  RH  026%=      5-min Rain = 0
KPD2 112002Z 28003KT 33/12 A3012 RMK A01 T03330116  RH  027%=      5-min Rain = 0
KPD2 112003Z 24004KT 34/12 A3012 RMK A01 T03350120  RH  027%=      5-min Rain = 0
KPD2 112004Z 27006KT 34/12 A3012 RMK A01 T03380120  RH  027%=      5-min Rain = 0
KPD2 112005Z 29006KT 34/12 A3012 RMK A01 T03390117  RH  026%=      5-min Rain = 0
KPD2 112006Z 28006KT 34/11 A3012 RMK A01 T03360113  RH  026%=      5-min Rain = 0
KPD2 112007Z 30005KT 33/12 A3012 RMK A01 T03340116  RH  027%=      5-min Rain = 0
KPD2 112008Z 29007KT 33/11 A3012 RMK A01 T03340114  RH  026%=      5-min Rain = 0
KPD2 112009Z 26005KT 33/11 A3012 RMK A01 T03320113  RH  026%=      5-min Rain = 0
KPD2 112010Z 25005KT 33/11 A3012 RMK A01 T03310114  RH  027%=      5-min Rain = 0
KPD2 112011Z 23002KT 33/11 A3012 RMK A01 T03310109  RH  026%=      5-min Rain = 0
KPD2 112012Z 21001KT 33/11 A3012 RMK A01 T03310113  RH  026%=      5-min Rain = 0
KPD2 112013Z 36003KT 33/12 A3012 RMK A01 T03330117  RH  027%=      5-min Rain = 0
KPD2 112014Z 06003KT 34/12 A3012 RMK A01 T03370116  RH  026%=      5-min Rain = 0
KPD2 112015Z 09003KT 34/11 A3012 RMK A01 T03370112  RH  026%=      5-min Rain = 0
KPD2 112016Z 09003KT 34/11 A3012 RMK A01 T03350114  RH  026%=      5-min Rain = 0
KPD2 112017Z 06003KT 34/11 A3012 RMK A01 T03350112  RH  026%=      5-min Rain = 0
KPD2 112018Z 06001KT 33/11 A3012 RMK A01 T03330114  RH  026%=      5-min Rain = 0
KPD2 112019Z 04001KT 33/12 A3012 RMK A01 T03330116  RH  027%=      5-min Rain = 0
KPD2 112020Z 06001KT 33/11 A3012 RMK A01 T03340114  RH  026%=      5-min Rain = 0
KPD2 112021Z 14002KT 34/11 A3012 RMK A01 T03350112  RH  026%=      5-min Rain = 0
KPD2 112022Z 12001KT 34/11 A3011 RMK A01 T03350110  RH  025%=      5-min Rain = 0
KPD2 112023Z 13002KT 33/11 A3011 RMK A01 T03340112  RH  026%=      5-min Rain = 0
KPD2 112024Z 17002KT 34/11 A3011 RMK A01 T03360112  RH  026%=      5-min Rain = 0
KPD2 112025Z 12003KT 33/11 A3011 RMK A01 T03340113  RH  026%=      5-min Rain = 0
KPD2 112026Z 10002KT 33/11 A3011 RMK A01 T03340112  RH  026%=      5-min Rain = 0
KPD2 112027Z 19003KT 33/11 A3011 RMK A01 T03340112  RH  026%=      5-min Rain = 0
KPD2 112028Z 19004KT 33/11 A3011 RMK A01 T03340112  RH  026%=      5-min Rain = 0
KPD2 112029Z 23003KT 33/11 A3011 RMK A01 T03320112  RH  026%=      5-min Rain = 0
KPD2 112030Z 26002KT 33/12 A3011 RMK A01 T03310115  RH  027%=      5-min Rain = 0
KPD2 112031Z 33003KT 33/12 A3011 RMK A01 T03320115  RH  027%=      5-min Rain = 0
KPD2 112032Z 01002KT 34/12 A3011 RMK A01 T03350118  RH  027%=      5-min Rain = 0
KPD2 112033Z 01002KT 34/12 A3011 RMK A01 T03380116  RH  026%=      5-min Rain = 0
KPD2 112034Z 33004KT 34/12 A3011 RMK A01 T03400121  RH  027%=      5-min Rain = 0
KPD2 112035Z 35003KT 34/11 A3011 RMK A01 T03400114  RH  025%=      5-min Rain = 0
KPD2 112036Z 02002KT 34/11 A3011 RMK A01 T03380112  RH  025%=      5-min Rain = 0
KPD2 112037Z 04003KT 34/11 A3011 RMK A01 T03350111  RH  026%=      5-min Rain = 0
KPD2 112038Z 06003KT 33/11 A3011 RMK A01 T03330110  RH  026%=      5-min Rain = 0
KPD2 112039Z 10002KT 33/11 A3011 RMK A01 T03290109  RH  026%=      5-min Rain = 0
KPD2 112040Z 06002KT 33/11 A3011 RMK A01 T03290111  RH  026%=      5-min Rain = 0
KPD2 112041Z 07002KT 33/11 A3011 RMK A01 T03310114  RH  027%=      5-min Rain = 0
KPD2 112042Z 07003KT 33/11 A301 RMK A01 T03340113  RH  026%=      5-min Rain = 0
KPD2 112043Z 01003KT 33/11 A301 RMK A01 T03340114  RH  026%=      5-min Rain = 0
KPD2 112044Z 34003KT 34/12 A301 RMK A01 T03350119  RH  027%=      5-min Rain = 0
KPD2 112045Z 32003KT 34/11 A301 RMK A01 T03370114  RH  026%=      5-min Rain = 0
KPD2 112046Z 32003KT 34/11 A301 RMK A01 T03350108  RH  025%=      5-min Rain = 0
KPD2 112047Z 34003KT 33/11 A301 RMK A01 T03320112  RH  026%=      5-min Rain = 0
KPD2 112048Z 03003KT 33/12 A301 RMK A01 T03330117  RH  027%=      5-min Rain = 0
KPD2 112049Z 05004KT 34/12 A301 RMK A01 T03370115  RH  026%=      5-min Rain = 0
KPD2 112050Z 06003KT 34/11 A301 RMK A01 T03370111  RH  025%=      5-min Rain = 0
KPD2 112051Z 02002KT 34/11 A301 RMK A01 T03370113  RH  026%=      5-min Rain = 0
KPD2 112052Z 03001KT 34/11 A301 RMK A01 T03360110  RH  025%=      5-min Rain = 0
KPD2 112053Z 04002KT 34/11 A301 RMK A01 T03360114  RH  026%=      5-min Rain = 0
KPD2 112054Z 05001KT 34/12 A301 RMK A01 T03390115  RH  026%=      5-min Rain = 0
KPD2 112055Z 31001KT 34/12 A301 RMK A01 T03410115  RH  025%=      5-min Rain = 0
KPD2 112056Z 25002KT 34/12 A301 RMK A01 T03420115  RH  025%=      5-min Rain = 0
KPD2 112057Z 24002KT 34/12 A301 RMK A01 T03430115  RH  025%=      5-min Rain = 0
KPD2 112058Z 22002KT 34/11 A301 RMK A01 T03440112  RH  024%=      5-min Rain = 0
KPD2 112059Z 19001KT 34/11 A301 RMK A01 T03420110  RH  024%=      5-min Rain = 0
KPD2 112100Z 15003KT 34/11 A301 RMK A01 T03420113  RH  025%=      5-min Rain = 0
KPD2 112101Z 23002KT 34/12 A301 RMK A01 T03430115  RH  025%=      5-min Rain = 0
KPD2 112102Z 20001KT 34/11 A301 RMK A01 T03430111  RH  024%=      5-min Rain = 0
KPD2 112103Z 27002KT 34/11 A3009 RMK A01 T03420111  RH  025%=      5-min Rain = 0
KPD2 112104Z 27002KT 34/12 A3009 RMK A01 T03440117  RH  025%=      5-min Rain = 0
KPD2 112105Z 29002KT 35/11 A3009 RMK A01 T03450112  RH  024%=      5-min Rain = 0
KPD2 112106Z 22002KT 34/11 A3009 RMK A01 T03430111  RH  024%=      5-min Rain = 0
KPD2 112107Z 26002KT 34/11 A3009 RMK A01 T03410114  RH  025%=      5-min Rain = 0
KPD2 112108Z 24002KT 34/11 A3009 RMK A01 T03410110  RH  025%=      5-min Rain = 0
KPD2 112109Z 32002KT 34/11 A3009 RMK A01 T03400110  RH  025%=      5-min Rain = 0
KPD2 112110Z 35004KT 34/12 A3009 RMK A01 T03390115  RH  026%=      5-min Rain = 0
KPD2 112111Z 33005KT 34/12 A3009 RMK A01 T03410117  RH  026%=      5-min Rain = 0
KPD2 112112Z 34004KT 34/11 A3009 RMK A01 T03410113  RH  025%=      5-min Rain = 0
KPD2 112113Z 07004KT 34/11 A3009 RMK A01 T03400112  RH  025%=      5-min Rain = 0
KPD2 112114Z 08005KT 34/11 A3009 RMK A01 T03380106  RH  024%=      5-min Rain = 0
KPD2 112115Z 12005KT 34/11 A3009 RMK A01 T03350111  RH  025%=      5-min Rain = 0
KPD2 112116Z 13004KT 34/11 A3009 RMK A01 T03370109  RH  025%=      5-min Rain = 0
KPD2 112117Z 13004KT 34/11 A3009 RMK A01 T03390107  RH  024%=      5-min Rain = 0
KPD2 112118Z 13004KT 34/11 A3009 RMK A01 T03400108  RH  024%=      5-min Rain = 0
KPD2 112119Z 15004KT 34/11 A3009 RMK A01 T03400105  RH  024%=      5-min Rain = 0
KPD2 112120Z 16003KT 34/11 A3009 RMK A01 T03390106  RH  024%=      5-min Rain = 0
KPD2 112121Z 14005KT 34/11 A3009 RMK A01 T03380105  RH  024%=      5-min Rain = 0
KPD2 112122Z 12004KT 34/11 A3009 RMK A01 T03380109  RH  025%=      5-min Rain = 0
KPD2 112123Z 15004KT 34/10 A3009 RMK A01 T03400104  RH  024%=      5-min Rain = 0
KPD2 112124Z 16002KT 34/10 A3009 RMK A01 T03400101  RH  023%=      5-min Rain = 0
KPD2 112125Z 12002KT 34/10 A3009 RMK A01 T03400104  RH  024%=      5-min Rain = 0
KPD2 112126Z 04001KT 34/10 A3009 RMK A01 T03400104  RH  024%=      5-min Rain = 0
KPD2 112127Z 01001KT 34/11 A3008 RMK A01 T03410107  RH  024%=      5-min Rain = 0
KPD2 112128Z 16001KT 34/10 A3008 RMK A01 T03410103  RH  023%=      5-min Rain = 0
KPD2 112129Z 19002KT 34/10 A3008 RMK A01 T03410102  RH  023%=      5-min Rain = 0
KPD2 112130Z 19001KT 34/10 A3008 RMK A01 T03420103  RH  023%=      5-min Rain = 0
KPD2 112131Z 15002KT 34/11 A3008 RMK A01 T03440108  RH  024%=      5-min Rain = 0
KPD2 112132Z 14001KT 34/11 A3008 RMK A01 T03440106  RH  023%=      5-min Rain = 0
KPD2 112133Z 21000KT 34/11 A3008 RMK A01 T03430106  RH  024%=      5-min Rain = 0
KPD2 112134Z 12001KT 34/11 A3008 RMK A01 T03440108  RH  024%=      5-min Rain = 0
KPD2 112135Z 16001KT 35/11 A3008 RMK A01 T03450106  RH  023%=      5-min Rain = 0
KPD2 112136Z 02001KT 35/11 A3008 RMK A01 T03450111  RH  024%=      5-min Rain = 0
KPD2 112137Z 29002KT 35/11 A3008 RMK A01 T03460113  RH  024%=      5-min Rain = 0
KPD2 112138Z 32002KT 35/12 A3008 RMK A01 T03470118  RH  025%=      5-min Rain = 0
KPD2 112139Z 33002KT 35/12 A3008 RMK A01 T03480120  RH  025%=      5-min Rain = 0
KPD2 112140Z 22003KT 35/12 A3008 RMK A01 T03510120  RH  025%=      5-min Rain = 0
KPD2 112141Z 23004KT 35/11 A3008 RMK A01 T03510114  RH  024%=      5-min Rain = 0
KPD2 112142Z 25003KT 35/12 A3008 RMK A01 T03510118  RH  024%=      5-min Rain = 0
KPD2 112143Z 20003KT 35/11 A3008 RMK A01 T03510112  RH  024%=      5-min Rain = 0
KPD2 112144Z 22002KT 35/11 A3008 RMK A01 T03480112  RH  024%=      5-min Rain = 0
KPD2 112145Z 13003KT 35/11 A3008 RMK A01 T03480112  RH  024%=      5-min Rain = 0
KPD2 112146Z 19002KT 35/11 A3008 RMK A01 T03480109  RH  023%=      5-min Rain = 0
KPD2 112147Z 21001KT 35/12 A3008 RMK A01 T03490115  RH  024%=      5-min Rain = 0
KPD2 112148Z 14003KT 35/11 A3008 RMK A01 T03500111  RH  023%=      5-min Rain = 0
KPD2 112149Z 12004KT 35/11 A3008 RMK A01 T03490106  RH  023%=      5-min Rain = 0
KPD2 112150Z 10002KT 35/11 A3008 RMK A01 T03470108  RH  023%=      5-min Rain = 0
KPD2 112151Z 12001KT 35/11 A3008 RMK A01 T03460109  RH  024%=      5-min Rain = 0
KPD2 112152Z 15003KT 35/11 A3008 RMK A01 T03460108  RH  023%=      5-min Rain = 0
KPD2 112153Z 15004KT 35/11 A3008 RMK A01 T03470105  RH  023%=      5-min Rain = 0
KPD2 112154Z 14002KT 34/10 A3008 RMK A01 T03440103  RH  023%=      5-min Rain = 0
KPD2 112155Z 14004KT 34/10 A3007 RMK A01 T03400102  RH  023%=      5-min Rain = 0
KPD2 112156Z 15004KT 34/10 A3007 RMK A01 T03390103  RH  024%=      5-min Rain = 0
KPD2 112157Z 18003KT 34/10 A3007 RMK A01 T03380102  RH  024%=      5-min Rain = 0
KPD2 112158Z 18003KT 34/10 A3007 RMK A01 T03370104  RH  024%=      5-min Rain = 0
KPD2 112159Z 17005KT 34/11 A3007 RMK A01 T03370105  RH  024%=      5-min Rain = 0
KPD2 112200Z 18004KT 34/10 A3007 RMK A01 T03370104  RH  024%=      5-min Rain = 0
KPD2 112201Z 16005KT 34/11 A3007 RMK A01 T03380106  RH  024%=      5-min Rain = 0
KPD2 112202Z 18005KT 34/11 A3007 RMK A01 T03390106  RH  024%=      5-min Rain = 0
KPD2 112203Z 20003KT 34/11 A3007 RMK A01 T03400106  RH  024%=      5-min Rain = 0
KPD2 112204Z 18003KT 34/11 A3007 RMK A01 T03380108  RH  025%=      5-min Rain = 0
KPD2 112205Z 16002KT 34/11 A3007 RMK A01 T03380108  RH  025%=      5-min Rain = 0
KPD2 112206Z 18001KT 34/11 A3007 RMK A01 T03390106  RH  024%=      5-min Rain = 0
KPD2 112207Z 14002KT 34/11 A3007 RMK A01 T03410107  RH  024%=      5-min Rain = 0
KPD2 112208Z 16003KT 34/11 A3007 RMK A01 T03420109  RH  024%=      5-min Rain = 0
KPD2 112209Z 15003KT 34/11 A3007 RMK A01 T03440107  RH  024%=      5-min Rain = 0
KPD2 112210Z 14003KT 34/11 A3007 RMK A01 T03440107  RH  024%=      5-min Rain = 0
KPD2 112211Z 18002KT 34/11 A3007 RMK A01 T03430106  RH  024%=      5-min Rain = 0
KPD2 112212Z 10003KT 34/11 A3007 RMK A01 T03400108  RH  024%=      5-min Rain = 0
KPD2 112213Z 06005KT 34/11 A3007 RMK A01 T03400110  RH  025%=      5-min Rain = 0
KPD2 112214Z 03002KT 34/11 A3007 RMK A01 T03400112  RH  025%=      5-min Rain = 0
KPD2 112215Z 13004KT 34/11 A3007 RMK A01 T03410110  RH  025%=      5-min Rain = 0
KPD2 112216Z 14007KT 34/11 A3007 RMK A01 T03410110  RH  025%=      5-min Rain = 0
KPD2 112217Z 13006KT 34/11 A3007 RMK A01 T03410108  RH  024%=      5-min Rain = 0
KPD2 112218Z 15004KT 34/11 A3007 RMK A01 T03410108  RH  024%=      5-min Rain = 0
KPD2 112219Z 16004KT 34/11 A3007 RMK A01 T03400110  RH  025%=      5-min Rain = 0
KPD2 112220Z 22002KT 34/11 A3007 RMK A01 T03390112  RH  025%=      5-min Rain = 0
KPD2 112221Z 20002KT 34/11 A3007 RMK A01 T03410111  RH  025%=      5-min Rain = 0
KPD2 112222Z 13003KT 34/11 A3007 RMK A01 T03410113  RH  025%=      5-min Rain = 0
KPD2 112223Z 14003G8KT 34/11 A3007 RMK A01 T03420110  RH  024%=      5-min Rain = 0
KPD2 112224Z 16006KT 34/11 A3007 RMK A01 T03400111  RH  025%=      5-min Rain = 0
KPD2 112225Z 17006KT 34/12 A3007 RMK A01 T03380115  RH  026%=      5-min Rain = 0
KPD2 112226Z 17007KT 34/11 A3007 RMK A01 T03370114  RH  026%=      5-min Rain = 0
KPD2 112227Z 14008KT 34/12 A3007 RMK A01 T03370115  RH  026%=      5-min Rain = 0
KPD2 112228Z 13006KT 34/12 A3007 RMK A01 T03380115  RH  026%=      5-min Rain = 0
KPD2 112229Z 14008KT 34/11 A3007 RMK A01 T03400114  RH  025%=      5-min Rain = 0
KPD2 112230Z 14009KT 34/12 A3007 RMK A01 T03410115  RH  025%=      5-min Rain = 0
KPD2 112231Z 14010KT 34/11 A3007 RMK A01 T03390114  RH  025%=      5-min Rain = 0
KPD2 112232Z 14008KT 34/11 A3007 RMK A01 T03380114  RH  026%=      5-min Rain = 0
KPD2 112233Z 14008KT 34/11 A3007 RMK A01 T03380114  RH  026%=      5-min Rain = 0
KPD2 112234Z 13007KT 34/11 A3007 RMK A01 T03370113  RH  025%=      5-min Rain = 0
KPD2 112235Z 11006KT 34/11 A3007 RMK A01 T03360114  RH  026%=      5-min Rain = 0
KPD2 112236Z 10005KT 34/11 A3007 RMK A01 T03370114  RH  026%=      5-min Rain = 0
KPD2 112237Z 11006KT 34/12 A3007 RMK A01 T03370115  RH  026%=      5-min Rain = 0
KPD2 112238Z 11005KT 34/11 A3007 RMK A01 T03370114  RH  026%=      5-min Rain = 0
KPD2 112239Z 11006KT 34/11 A3007 RMK A01 T03380113  RH  026%=      5-min Rain = 0
KPD2 112240Z 12003KT 34/11 A3007 RMK A01 T03370114  RH  026%=      5-min Rain = 0
KPD2 112241Z 10001KT 34/11 A3007 RMK A01 T03370113  RH  026%=      5-min Rain = 0
KPD2 112242Z 09003KT 34/11 A3007 RMK A01 T03370114  RH  026%=      5-min Rain = 0
KPD2 112243Z 14006KT 34/11 A3007 RMK A01 T03370113  RH  026%=      5-min Rain = 0
KPD2 112244Z 12006KT 34/12 A3007 RMK A01 T03370117  RH  026%=      5-min Rain = 0
KPD2 112245Z 11009KT 34/12 A3007 RMK A01 T03390116  RH  026%=      5-min Rain = 0
KPD2 112246Z 09006G11KT 34/11 A3007 RMK A01 T03400114  RH  025%=      5-min Rain = 0
KPD2 112247Z 11003KT 34/12 A3007 RMK A01 T03380115  RH  026%=      5-min Rain = 0
KPD2 112248Z 11004KT 34/11 A3007 RMK A01 T03370114  RH  026%=      5-min Rain = 0
KPD2 112249Z 11005KT 34/11 A3007 RMK A01 T03370114  RH  026%=      5-min Rain = 0
KPD2 112250Z 11003KT 34/12 A3007 RMK A01 T03370115  RH  026%=      5-min Rain = 0
KPD2 112251Z 12006KT 34/11 A3007 RMK A01 T03370114  RH  026%=      5-min Rain = 0
KPD2 112252Z 11005KT 34/12 A3007 RMK A01 T03380115  RH  026%=      5-min Rain = 0
KPD2 112253Z 13004KT 34/12 A3007 RMK A01 T03380117  RH  026%=      5-min Rain = 0
KPD2 112254Z 13007KT 34/12 A3007 RMK A01 T03390115  RH  026%=      5-min Rain = 0
KPD2 112255Z 13007KT 34/12 A3007 RMK A01 T03400115  RH  026%=      5-min Rain = 0
KPD2 112256Z 14007KT 34/11 A3007 RMK A01 T03390114  RH  026%=      5-min Rain = 0
KPD2 112257Z 14008KT 34/11 A3007 RMK A01 T03360114  RH  026%=      5-min Rain = 0
KPD2 112258Z 16007KT 33/12 A3007 RMK A01 T03330115  RH  026%=      5-min Rain = 0
KPD2 112259Z 15008KT 33/12 A3007 RMK A01 T03320115  RH  027%=      5-min Rain = 0
KPD2 112300Z 14006KT 33/11 A3007 RMK A01 T03310114  RH  027%=      5-min Rain = 0
KPD2 112301Z 12004KT 33/12 A3007 RMK A01 T03310116  RH  027%=      5-min Rain = 0
KPD2 112302Z 11004KT 33/12 A3007 RMK A01 T03320115  RH  027%=      5-min Rain = 0
KPD2 112303Z 11004KT 33/12 A3007 RMK A01 T03330115  RH  027%=      5-min Rain = 0
KPD2 112304Z 13007KT 33/12 A3007 RMK A01 T03340115  RH  026%=      5-min Rain = 0
KPD2 112305Z 14008KT 34/12 A3007 RMK A01 T03350116  RH  026%=      5-min Rain = 0
KPD2 112306Z 15006KT 33/11 A3007 RMK A01 T03340114  RH  026%=      5-min Rain = 0
KPD2 112307Z 16006KT 33/12 A3007 RMK A01 T03330115  RH  027%=      5-min Rain = 0
KPD2 112308Z 16007KT 33/11 A3007 RMK A01 T03320114  RH  027%=      5-min Rain = 0
KPD2 112309Z 16009KT 33/11 A3007 RMK A01 T03300114  RH  027%=      5-min Rain = 0
KPD2 112310Z 16009KT 33/11 A3007 RMK A01 T03290114  RH  027%=      5-min Rain = 0
KPD2 112311Z 15005KT 33/11 A3007 RMK A01 T03280114  RH  027%=      5-min Rain = 0
KPD2 112312Z 16005KT 33/12 A3007 RMK A01 T03280115  RH  027%=      5-min Rain = 0
KPD2 112313Z 17006KT 33/12 A3007 RMK A01 T03270115  RH  027%=      5-min Rain = 0
KPD2 112314Z 15005KT 33/12 A3007 RMK A01 T03280115  RH  027%=      5-min Rain = 0
KPD2 112315Z 17006KT 33/12 A3007 RMK A01 T03280116  RH  027%=      5-min Rain = 0
KPD2 112316Z 17007KT 33/12 A3007 RMK A01 T03280115  RH  027%=      5-min Rain = 0
KPD2 112317Z 17008KT 33/11 A3007 RMK A01 T03280114  RH  027%=      5-min Rain = 0
KPD2 112318Z 16006KT 33/11 A3007 RMK A01 T03260113  RH  027%=      5-min Rain = 0
KPD2 112319Z 17006KT 33/11 A3007 RMK A01 T03260114  RH  027%=      5-min Rain = 0
KPD2 112320Z 17006KT 33/11 A3007 RMK A01 T03260114  RH  027%=      5-min Rain = 0
KPD2 112321Z 16005KT 33/12 A3007 RMK A01 T03260115  RH  028%=      5-min Rain = 0
KPD2 112322Z 15006KT 33/12 A3007 RMK A01 T03270116  RH  028%=      5-min Rain = 0
KPD2 112323Z 15005KT 33/12 A3007 RMK A01 T03280116  RH  027%=      5-min Rain = 0
KPD2 112324Z 15005KT 33/11 A3007 RMK A01 T03280114  RH  027%=      5-min Rain = 0
KPD2 112325Z 15005KT 33/12 A3007 RMK A01 T03280116  RH  027%=      5-min Rain = 0
KPD2 112326Z 13007KT 33/12 A3007 RMK A01 T03280116  RH  027%=      5-min Rain = 0
KPD2 112327Z 13006KT 33/12 A3007 RMK A01 T03290115  RH  027%=      5-min Rain = 0
KPD2 112328Z 14006KT 33/12 A3007 RMK A01 T03290115  RH  027%=      5-min Rain = 0
KPD2 112329Z 14005KT 33/11 A3007 RMK A01 T03290114  RH  027%=      5-min Rain = 0
KPD2 112330Z 15006KT 33/11 A3007 RMK A01 T03280114  RH  027%=      5-min Rain = 0
KPD2 112331Z 15005KT 33/12 A3007 RMK A01 T03270115  RH  027%=      5-min Rain = 0
KPD2 112332Z 15006KT 33/12 A3007 RMK A01 T03270116  RH  028%=      5-min Rain = 0
KPD2 112333Z 16006KT 33/12 A3007 RMK A01 T03260116  RH  028%=      5-min Rain = 0
KPD2 112334Z 18005KT 33/11 A3007 RMK A01 T03250113  RH  027%=      5-min Rain = 0
KPD2 112335Z 16005KT 32/11 A3007 RMK A01 T03230113  RH  028%=      5-min Rain = 0
KPD2 112336Z 15007KT 32/11 A3007 RMK A01 T03220114  RH  028%=      5-min Rain = 0
KPD2 112337Z 14008KT 32/11 A3007 RMK A01 T03210114  RH  028%=      5-min Rain = 0
KPD2 112338Z 14007KT 32/11 A3007 RMK A01 T03210113  RH  028%=      5-min Rain = 0
KPD2 112339Z 14007KT 32/11 A3007 RMK A01 T03210114  RH  028%=      5-min Rain = 0
KPD2 112340Z 13007KT 32/11 A3007 RMK A01 T03220114  RH  028%=      5-min Rain = 0
KPD2 112341Z 13008KT 32/12 A3007 RMK A01 T03220115  RH  028%=      5-min Rain = 0
KPD2 112342Z 14007KT 32/12 A3007 RMK A01 T03220115  RH  028%=      5-min Rain = 0
KPD2 112343Z 15007KT 32/12 A3007 RMK A01 T03220116  RH  028%=      5-min Rain = 0
KPD2 112344Z 15005KT 32/12 A3007 RMK A01 T03210115  RH  028%=      5-min Rain = 0
KPD2 112345Z 14005KT 32/12 A3007 RMK A01 T03210116  RH  029%=      5-min Rain = 0
KPD2 112346Z 14005KT 32/12 A3007 RMK A01 T03200117  RH  029%=      5-min Rain = 0
KPD2 112347Z 15006KT 32/12 A3007 RMK A01 T03210117  RH  029%=      5-min Rain = 0
KPD2 112348Z 15008KT 32/12 A3007 RMK A01 T03210118  RH  029%=      5-min Rain = 0
KPD2 112349Z 15008KT 32/12 A3007 RMK A01 T03200116  RH  029%=      5-min Rain = 0
KPD2 112350Z 14008KT 32/11 A3007 RMK A01 T03190114  RH  028%=      5-min Rain = 0
KPD2 112351Z 16008KT 32/11 A3007 RMK A01 T03180113  RH  028%=      5-min Rain = 0
KPD2 112352Z 16006KT 32/11 A3007 RMK A01 T03180114  RH  029%=      5-min Rain = 0
KPD2 112353Z 16006KT 32/12 A3007 RMK A01 T03170115  RH  029%=      5-min Rain = 0
KPD2 112354Z 14005KT 32/12 A3007 RMK A01 T03160115  RH  029%=      5-min Rain = 0
KPD2 112355Z 15006KT 32/12 A3007 RMK A01 T03160116  RH  029%=      5-min Rain = 0
KPD2 112356Z 15004KT 32/12 A3007 RMK A01 T03160116  RH  029%=      5-min Rain = 0
KPD2 112357Z 15005KT 32/12 A3007 RMK A01 T03160117  RH  030%=      5-min Rain = 0
KPD2 112358Z 15005KT 32/12 A3007 RMK A01 T03160117  RH  030%=      5-min Rain = 0
KPD2 112359Z 15004KT 32/12 A3007 RMK A01 T03160118  RH  030%=      5-min Rain = 0
KPD2 120000Z 14005KT 32/12 A3007 RMK A01 T03160118  RH  030%=      5-min Rain = 0
KPD2 120001Z 14005KT 32/12 A3007 RMK A01 T03160117  RH  030%=      5-min Rain = 0
KPD2 120002Z 15005KT 32/12 A3007 RMK A01 T03150117  RH  030%=      5-min Rain = 0
KPD2 120003Z 15005KT 32/12 A3007 RMK A01 T03150117  RH  030%=      5-min Rain = 0
KPD2 120004Z 15006KT 31/12 A3007 RMK A01 T03140117  RH  030%=      5-min Rain = 0
KPD2 120005Z 15005KT 31/12 A3007 RMK A01 T03140117  RH  030%=      5-min Rain = 0
KPD2 120006Z 14005KT 31/12 A3007 RMK A01 T03130118  RH  030%=      5-min Rain = 0
KPD2 120007Z 14007KT 31/12 A3007 RMK A01 T03120117  RH  030%=      5-min Rain = 0
KPD2 120008Z 14007KT 31/12 A3007 RMK A01 T03120116  RH  030%=      5-min Rain = 0
KPD2 120009Z 14007KT 31/12 A3007 RMK A01 T03110115  RH  030%=      5-min Rain = 0
KPD2 120010Z 15006KT 31/12 A3007 RMK A01 T03100115  RH  030%=      5-min Rain = 0
KPD2 120011Z 15007KT 31/12 A3007 RMK A01 T03100115  RH  030%=      5-min Rain = 0
KPD2 120012Z 14008KT 31/12 A3007 RMK A01 T03090116  RH  030%=      5-min Rain = 0
KPD2 120013Z 15008KT 31/12 A3007 RMK A01 T03080116  RH  031%=      5-min Rain = 0
KPD2 120014Z 15009KT 31/12 A3007 RMK A01 T03080116  RH  031%=      5-min Rain = 0
KPD2 120015Z 15008KT 31/12 A3007 RMK A01 T03070116  RH  031%=      5-min Rain = 0
KPD2 120016Z 15007KT 31/12 A3007 RMK A01 T03060116  RH  031%=      5-min Rain = 0
KPD2 120017Z 16007KT 31/12 A3007 RMK A01 T03050117  RH  031%=      5-min Rain = 0
KPD2 120018Z 15006KT 31/12 A3007 RMK A01 T03050117  RH  031%=      5-min Rain = 0
KPD2 120019Z 14005KT 30/12 A3007 RMK A01 T03040117  RH  032%=      5-min Rain = 0
KPD2 120020Z 15006KT 30/12 A3007 RMK A01 T03040117  RH  032%=      5-min Rain = 0
KPD2 120021Z 15007KT 30/12 A3007 RMK A01 T03040117  RH  032%=      5-min Rain = 0
KPD2 120022Z 15008KT 30/12 A3007 RMK A01 T03030116  RH  032%=      5-min Rain = 0
KPD2 120023Z 14006KT 30/12 A3007 RMK A01 T03030116  RH  032%=      5-min Rain = 0
KPD2 120024Z 14005KT 30/12 A3007 RMK A01 T03020116  RH  032%=      5-min Rain = 0
KPD2 120025Z 15008KT 30/12 A3007 RMK A01 T03020117  RH  032%=      5-min Rain = 0
KPD2 120026Z 15007KT 30/12 A3007 RMK A01 T03010116  RH  032%=      5-min Rain = 0
KPD2 120027Z 15006KT 30/12 A3007 RMK A01 T03010116  RH  032%=      5-min Rain = 0
KPD2 120028Z 15006KT 30/12 A3007 RMK A01 T03000116  RH  032%=      5-min Rain = 0
KPD2 120029Z 15007KT 30/12 A3007 RMK A01 T02990116  RH  032%=      5-min Rain = 0
KPD2 120030Z 15007KT 30/12 A3007 RMK A01 T02990116  RH  032%=      5-min Rain = 0
KPD2 120031Z 15005KT 30/12 A3007 RMK A01 T02980116  RH  032%=      5-min Rain = 0
KPD2 120032Z 14005KT 30/12 A3007 RMK A01 T02980116  RH  033%=      5-min Rain = 0
KPD2 120033Z 14006KT 30/12 A3007 RMK A01 T02980116  RH  033%=      5-min Rain = 0
KPD2 120034Z 14008KT 30/12 A3007 RMK A01 T02970116  RH  033%=      5-min Rain = 0
KPD2 120035Z 14007KT 30/12 A3007 RMK A01 T02970115  RH  033%=      5-min Rain = 0
KPD2 120036Z 14007KT 30/12 A3007 RMK A01 T02970115  RH  033%=      5-min Rain = 0
KPD2 120037Z 14008KT 30/12 A3007 RMK A01 T02960115  RH  033%=      5-min Rain = 0
KPD2 120038Z 14007KT 30/12 A3007 RMK A01 T02970115  RH  033%=      5-min Rain = 0
KPD2 120039Z 14007KT 30/12 A3007 RMK A01 T02960115  RH  033%=      5-min Rain = 0
KPD2 120040Z 13006KT 30/12 A3007 RMK A01 T02960116  RH  033%=      5-min Rain = 0
KPD2 120041Z 13006KT 30/12 A3007 RMK A01 T02950117  RH  033%=      5-min Rain = 0
KPD2 120042Z 13006KT 29/12 A3007 RMK A01 T02940117  RH  034%=      5-min Rain = 0
KPD2 120043Z 14007KT 29/12 A3007 RMK A01 T02930117  RH  034%=      5-min Rain = 0
KPD2 120044Z 13006KT 29/12 A3007 RMK A01 T02910117  RH  034%=      5-min Rain = 0
KPD2 120045Z 13006KT 29/12 A3007 RMK A01 T02910117  RH  034%=      5-min Rain = 0
KPD2 120046Z 13006KT 29/12 A3007 RMK A01 T02890118  RH  035%=      5-min Rain = 0
KPD2 120047Z 13006KT 29/12 A3007 RMK A01 T02880117  RH  035%=      5-min Rain = 0
KPD2 120048Z 14006KT 29/12 A3007 RMK A01 T02880117  RH  035%=      5-min Rain = 0
KPD2 120049Z 13006KT 29/12 A3007 RMK A01 T02870118  RH  035%=      5-min Rain = 0
KPD2 120050Z 13006KT 29/12 A3007 RMK A01 T02860118  RH  035%=      5-min Rain = 0
KPD2 120051Z 14005KT 29/12 A3007 RMK A01 T02860118  RH  035%=      5-min Rain = 0
KPD2 120052Z 13005KT 29/12 A3007 RMK A01 T02850117  RH  035%=      5-min Rain = 0
KPD2 120053Z 13006KT 28/12 A3007 RMK A01 T02840117  RH  036%=      5-min Rain = 0
KPD2 120054Z 14005KT 28/12 A3007 RMK A01 T02830118  RH  036%=      5-min Rain = 0
KPD2 120055Z 14005KT 28/12 A3007 RMK A01 T02830118  RH  036%=      5-min Rain = 0
KPD2 120056Z 14005KT 28/12 A3007 RMK A01 T02820118  RH  036%=      5-min Rain = 0
KPD2 120057Z 14005KT 28/12 A3007 RMK A01 T02810118  RH  036%=      5-min Rain = 0
KPD2 120058Z 14005KT 28/12 A3007 RMK A01 T02800118  RH  037%=      5-min Rain = 0
KPD2 120059Z 14006KT 28/12 A3007 RMK A01 T02800118  RH  037%=      5-min Rain = 0
KPD2 120100Z 14006KT 28/12 A3008 RMK A01 T02790118  RH  037%=      5-min Rain = 0
KPD2 120101Z 13005KT 28/12 A3008 RMK A01 T02790118  RH  037%=      5-min Rain = 0
KPD2 120102Z 14006KT 28/12 A3008 RMK A01 T02780118  RH  037%=      5-min Rain = 0
KPD2 120103Z 14005KT 28/12 A3008 RMK A01 T02780118  RH  037%=      5-min Rain = 0
KPD2 120104Z 14006KT 28/12 A3008 RMK A01 T02770118  RH  037%=      5-min Rain = 0
KPD2 120105Z 13006KT 28/12 A3008 RMK A01 T02770118  RH  037%=      5-min Rain = 0
KPD2 120106Z 13005KT 28/12 A3008 RMK A01 T02760117  RH  037%=      5-min Rain = 0
KPD2 120107Z 14006KT 28/12 A3008 RMK A01 T02760117  RH  037%=      5-min Rain = 0
KPD2 120108Z 13006KT 28/12 A3008 RMK A01 T02750117  RH  037%=      5-min Rain = 0
KPD2 120109Z 13006KT 28/12 A3008 RMK A01 T02750117  RH  037%=      5-min Rain = 0
KPD2 120110Z 13005KT 27/12 A3008 RMK A01 T02740117  RH  038%=      5-min Rain = 0
KPD2 120111Z 13005KT 27/12 A3008 RMK A01 T02740117  RH  038%=      5-min Rain = 0
KPD2 120112Z 13006KT 27/12 A3008 RMK A01 T02740117  RH  038%=      5-min Rain = 0
KPD2 120113Z 13005KT 27/12 A3008 RMK A01 T02730117  RH  038%=      5-min Rain = 0
KPD2 120114Z 13006KT 27/12 A3008 RMK A01 T02730117  RH  038%=      5-min Rain = 0
KPD2 120115Z 13005KT 27/12 A3008 RMK A01 T02730117  RH  038%=      5-min Rain = 0
KPD2 120116Z 13006KT 27/12 A3008 RMK A01 T02730117  RH  038%=      5-min Rain = 0
KPD2 120117Z 13005KT 27/12 A3008 RMK A01 T02720116  RH  038%=      5-min Rain = 0
KPD2 120118Z 13005KT 27/12 A3008 RMK A01 T02730117  RH  038%=      5-min Rain = 0
KPD2 120119Z 13006KT 27/12 A3008 RMK A01 T02720116  RH  038%=      5-min Rain = 0
KPD2 120120Z 13005KT 27/12 A3008 RMK A01 T02720117  RH  038%=      5-min Rain = 0
KPD2 120121Z 13005KT 27/12 A3008 RMK A01 T02720117  RH  038%=      5-min Rain = 0
KPD2 120122Z 13006KT 27/12 A3008 RMK A01 T02710117  RH  038%=      5-min Rain = 0
KPD2 120123Z 13005KT 27/12 A3008 RMK A01 T02710117  RH  038%=      5-min Rain = 0
KPD2 120124Z 13005KT 27/12 A3008 RMK A01 T02700117  RH  039%=      5-min Rain = 0
KPD2 120125Z 13005KT 27/12 A3008 RMK A01 T02690117  RH  039%=      5-min Rain = 0
KPD2 120126Z 13004KT 27/12 A3008 RMK A01 T02680117  RH  039%=      5-min Rain = 0
KPD2 120127Z 12004KT 27/12 A3008 RMK A01 T02670118  RH  039%=      5-min Rain = 0
KPD2 120128Z 12004KT 27/12 A3008 RMK A01 T02660117  RH  039%=      5-min Rain = 0
KPD2 120129Z 13004KT 27/12 A3008 RMK A01 T02650117  RH  040%=      5-min Rain = 0
KPD2 120130Z 12005KT 27/12 A3008 RMK A01 T02650117  RH  040%=      5-min Rain = 0
KPD2 120131Z 12004KT 27/12 A3008 RMK A01 T02650116  RH  040%=      5-min Rain = 0
KPD2 120132Z 13004KT 26/12 A3009 RMK A01 T02640116  RH  040%=      5-min Rain = 0
KPD2 120133Z 13004KT 26/12 A3009 RMK A01 T02640116  RH  040%=      5-min Rain = 0
KPD2 120134Z 14005KT 26/12 A3009 RMK A01 T02640116  RH  040%=      5-min Rain = 0
KPD2 120135Z 13005KT 26/12 A3009 RMK A01 T02640116  RH  040%=      5-min Rain = 0
KPD2 120136Z 14004KT 26/12 A3009 RMK A01 T02640116  RH  040%=      5-min Rain = 0
KPD2 120137Z 13004KT 26/12 A3009 RMK A01 T02640116  RH  040%=      5-min Rain = 0
KPD2 120138Z 13005KT 26/12 A3009 RMK A01 T02640117  RH  040%=      5-min Rain = 0
KPD2 120139Z 13004KT 26/12 A3009 RMK A01 T02640117  RH  040%=      5-min Rain = 0
KPD2 120140Z 14004KT 26/12 A3009 RMK A01 T02630117  RH  040%=      5-min Rain = 0
KPD2 120141Z 13005KT 26/12 A3009 RMK A01 T02620117  RH  040%=      5-min Rain = 0
KPD2 120142Z 13004KT 26/12 A3009 RMK A01 T02620117  RH  040%=      5-min Rain = 0
KPD2 120143Z 13003KT 26/12 A3009 RMK A01 T02620117  RH  040%=      5-min Rain = 0
KPD2 120144Z 12004KT 26/12 A3009 RMK A01 T02610117  RH  040%=      5-min Rain = 0
KPD2 120145Z 12004KT 26/12 A3009 RMK A01 T02610117  RH  041%=      5-min Rain = 0
KPD2 120146Z 12003KT 26/12 A3009 RMK A01 T02610117  RH  041%=      5-min Rain = 0
KPD2 120147Z 12003KT 26/12 A3009 RMK A01 T02610117  RH  041%=      5-min Rain = 0
KPD2 120148Z 12002KT 26/12 A3009 RMK A01 T02600117  RH  041%=      5-min Rain = 0
KPD2 120149Z 14003KT 26/12 A3009 RMK A01 T02600117  RH  041%=      5-min Rain = 0
KPD2 120150Z 14003KT 26/12 A3009 RMK A01 T02600117  RH  041%=      5-min Rain = 0
KPD2 120151Z 13002KT 26/12 A3009 RMK A01 T02600117  RH  041%=      5-min Rain = 0
KPD2 120152Z 13003KT 26/12 A3009 RMK A01 T02590117  RH  041%=      5-min Rain = 0
KPD2 120153Z 14003KT 26/12 A3009 RMK A01 T02590117  RH  041%=      5-min Rain = 0
KPD2 120154Z 14003KT 26/12 A3009 RMK A01 T02580117  RH  041%=      5-min Rain = 0
KPD2 120155Z 13003KT 26/12 A3009 RMK A01 T02570118  RH  042%=      5-min Rain = 0
KPD2 120156Z 14003KT 26/12 A3009 RMK A01 T02560118  RH  042%=      5-min Rain = 0
KPD2 120157Z 13003KT 26/12 A3009 RMK A01 T02560118  RH  042%=      5-min Rain = 0
KPD2 120158Z 13003KT 26/12 A301 RMK A01 T02550118  RH  042%=      5-min Rain = 0
KPD2 120159Z 13003KT 25/12 A301 RMK A01 T02540118  RH  042%=      5-min Rain = 0
KPD2 120200Z 13004KT 25/12 A301 RMK A01 T02540118  RH  043%=      5-min Rain = 0
KPD2 120201Z 13004KT 25/12 A301 RMK A01 T02530117  RH  043%=      5-min Rain = 0
KPD2 120202Z 13004KT 25/12 A301 RMK A01 T02530117  RH  043%=      5-min Rain = 0
KPD2 120203Z 13004KT 25/12 A301 RMK A01 T02520117  RH  043%=      5-min Rain = 0
KPD2 120204Z 13004KT 25/12 A301 RMK A01 T02520116  RH  043%=      5-min Rain = 0
KPD2 120205Z 14004KT 25/12 A301 RMK A01 T02520117  RH  043%=      5-min Rain = 0
KPD2 120206Z 13004KT 25/12 A301 RMK A01 T02520116  RH  043%=      5-min Rain = 0
KPD2 120207Z 13004KT 25/12 A301 RMK A01 T02520116  RH  043%=      5-min Rain = 0
KPD2 120208Z 12004KT 25/12 A301 RMK A01 T02520117  RH  043%=      5-min Rain = 0
KPD2 120209Z 12003KT 25/12 A301 RMK A01 T02520117  RH  043%=      5-min Rain = 0
KPD2 120210Z 13003KT 25/12 A301 RMK A01 T02520117  RH  043%=      5-min Rain = 0
KPD2 120211Z 12003KT 25/12 A301 RMK A01 T02510117  RH  043%=      5-min Rain = 0
KPD2 120212Z 13003KT 25/12 A301 RMK A01 T02510118  RH  043%=      5-min Rain = 0
KPD2 120213Z 12003KT 25/12 A301 RMK A01 T02500117  RH  043%=      5-min Rain = 0
KPD2 120214Z 12003KT 25/12 A301 RMK A01 T02500117  RH  043%=      5-min Rain = 0
KPD2 120215Z 12003KT 25/12 A301 RMK A01 T02490117  RH  044%=      5-min Rain = 0
KPD2 120216Z 12002KT 25/12 A301 RMK A01 T02480117  RH  044%=      5-min Rain = 0
KPD2 120217Z 12003KT 25/12 A301 RMK A01 T02480117  RH  044%=      5-min Rain = 0
KPD2 120218Z 12002KT 25/12 A301 RMK A01 T02480116  RH  044%=      5-min Rain = 0
KPD2 120219Z 13003KT 25/12 A301 RMK A01 T02480117  RH  044%=      5-min Rain = 0
KPD2 120220Z 13003KT 25/12 A301 RMK A01 T02480116  RH  044%=      5-min Rain = 0
KPD2 120221Z 13003KT 25/12 A301 RMK A01 T02480117  RH  044%=      5-min Rain = 0
KPD2 120222Z 14003KT 25/12 A301 RMK A01 T02480116  RH  044%=      5-min Rain = 0
KPD2 120223Z 13004KT 25/12 A301 RMK A01 T02480116  RH  044%=      5-min Rain = 0
KPD2 120224Z 13003KT 25/12 A301 RMK A01 T02470117  RH  044%=      5-min Rain = 0
KPD2 120225Z 13003KT 25/12 A3011 RMK A01 T02470116  RH  044%=      5-min Rain = 0
KPD2 120226Z 13003KT 25/12 A3011 RMK A01 T02470117  RH  044%=      5-min Rain = 0
KPD2 120227Z 14003KT 25/12 A3011 RMK A01 T02470117  RH  044%=      5-min Rain = 0
KPD2 120228Z 13003KT 25/12 A3011 RMK A01 T02470116  RH  044%=      5-min Rain = 0
KPD2 120229Z 14003KT 25/12 A3011 RMK A01 T02470116  RH  044%=      5-min Rain = 0
KPD2 120230Z 14003KT 25/12 A3011 RMK A01 T02480116  RH  044%=      5-min Rain = 0
KPD2 120231Z 15003KT 25/12 A3011 RMK A01 T02480117  RH  044%=      5-min Rain = 0
KPD2 120232Z 15003KT 25/12 A3011 RMK A01 T02480117  RH  044%=      5-min Rain = 0
KPD2 120233Z 15003KT 25/12 A3011 RMK A01 T02480118  RH  044%=      5-min Rain = 0
KPD2 120234Z 15003KT 25/12 A3011 RMK A01 T02480118  RH  044%=      5-min Rain = 0
KPD2 120235Z 15003KT 25/12 A3011 RMK A01 T02470118  RH  044%=      5-min Rain = 0
KPD2 120236Z 15003KT 25/12 A3011 RMK A01 T02470118  RH  045%=      5-min Rain = 0
KPD2 120237Z 15003KT 25/12 A3011 RMK A01 T02460118  RH  045%=      5-min Rain = 0
KPD2 120238Z 15003KT 25/12 A3011 RMK A01 T02450118  RH  045%=      5-min Rain = 0
KPD2 120239Z 14003KT 25/12 A3011 RMK A01 T02450117  RH  045%=      5-min Rain = 0
KPD2 120240Z 14003KT 24/12 A3011 RMK A01 T02440118  RH  045%=      5-min Rain = 0
KPD2 120241Z 15003KT 24/12 A3011 RMK A01 T02430118  RH  045%=      5-min Rain = 0
KPD2 120242Z 15003KT 24/12 A3011 RMK A01 T02430118  RH  045%=      5-min Rain = 0
KPD2 120243Z 15003KT 24/12 A3011 RMK A01 T02420118  RH  046%=      5-min Rain = 0
KPD2 120244Z 15003KT 24/12 A3011 RMK A01 T02410118  RH  046%=      5-min Rain = 0
KPD2 120245Z 14003KT 24/12 A3011 RMK A01 T02400117  RH  046%=      5-min Rain = 0
KPD2 120246Z 14003KT 24/12 A3011 RMK A01 T02400117  RH  046%=      5-min Rain = 0
KPD2 120247Z 15003KT 24/12 A3011 RMK A01 T02390117  RH  046%=      5-min Rain = 0
KPD2 120248Z 15003KT 24/12 A3011 RMK A01 T02390117  RH  046%=      5-min Rain = 0
KPD2 120249Z 15004KT 24/12 A3011 RMK A01 T02390117  RH  046%=      5-min Rain = 0
KPD2 120250Z 15004KT 24/12 A3011 RMK A01 T02380117  RH  046%=      5-min Rain = 0
KPD2 120251Z 15004KT 24/12 A3011 RMK A01 T02380116  RH  046%=      5-min Rain = 0
KPD2 120252Z 14003KT 24/12 A3011 RMK A01 T02380117  RH  046%=      5-min Rain = 0
KPD2 120253Z 14002KT 24/12 A3011 RMK A01 T02380118  RH  047%=      5-min Rain = 0
KPD2 120254Z 14002KT 24/12 A3011 RMK A01 T02370116  RH  047%=      5-min Rain = 0
KPD2 120255Z 14003KT 24/12 A3011 RMK A01 T02360117  RH  047%=      5-min Rain = 0
KPD2 120256Z 13004KT 24/12 A3011 RMK A01 T02360117  RH  047%=      5-min Rain = 0
KPD2 120257Z 13003KT 23/12 A3011 RMK A01 T02340117  RH  048%=      5-min Rain = 0
KPD2 120258Z 13004KT 23/12 A3011 RMK A01 T02340117  RH  048%=      5-min Rain = 0
KPD2 120259Z 13004KT 23/12 A3011 RMK A01 T02330117  RH  048%=      5-min Rain = 0
KPD2 120300Z 14004KT 23/12 A3011 RMK A01 T02330117  RH  048%=      5-min Rain = 0
KPD2 120301Z 13003KT 23/12 A3011 RMK A01 T02330117  RH  048%=      5-min Rain = 0
KPD2 120302Z 13003KT 23/12 A3011 RMK A01 T02320116  RH  048%=      5-min Rain = 0
KPD2 120303Z 13003KT 23/12 A3011 RMK A01 T02320116  RH  048%=      5-min Rain = 0
KPD2 120304Z 13003KT 23/12 A3011 RMK A01 T02320117  RH  048%=      5-min Rain = 0
KPD2 120305Z 13004KT 23/12 A3011 RMK A01 T02320117  RH  048%=      5-min Rain = 0
KPD2 120306Z 14004KT 23/12 A3011 RMK A01 T02310116  RH  048%=      5-min Rain = 0
KPD2 120307Z 14004KT 23/12 A3011 RMK A01 T02310116  RH  048%=      5-min Rain = 0
KPD2 120308Z 14005KT 23/12 A3011 RMK A01 T02310116  RH  048%=      5-min Rain = 0
KPD2 120309Z 13005KT 23/12 A3011 RMK A01 T02320115  RH  048%=      5-min Rain = 0
KPD2 120310Z 13005KT 23/12 A3011 RMK A01 T02330116  RH  048%=      5-min Rain = 0
KPD2 120311Z 14004KT 23/12 A3011 RMK A01 T02340116  RH  047%=      5-min Rain = 0
KPD2 120312Z 14004KT 23/12 A3011 RMK A01 T02340116  RH  047%=      5-min Rain = 0
KPD2 120313Z 13005KT 23/12 A3011 RMK A01 T02340116  RH  047%=      5-min Rain = 0
KPD2 120314Z 14004KT 23/12 A3011 RMK A01 T02340116  RH  047%=      5-min Rain = 0
KPD2 120315Z 13003KT 23/12 A3011 RMK A01 T02340116  RH  047%=      5-min Rain = 0
KPD2 120316Z 12003KT 23/12 A3011 RMK A01 T02340116  RH  047%=      5-min Rain = 0
KPD2 120317Z 12003KT 23/12 A3011 RMK A01 T02340116  RH  047%=      5-min Rain = 0
KPD2 120318Z 12003KT 23/12 A3011 RMK A01 T02340116  RH  047%=      5-min Rain = 0
KPD2 120319Z 12002KT 23/12 A3011 RMK A01 T02330115  RH  048%=      5-min Rain = 0
KPD2 120320Z 12003KT 23/12 A3011 RMK A01 T02330116  RH  048%=      5-min Rain = 0
KPD2 120321Z 12003KT 23/12 A3011 RMK A01 T02330116  RH  048%=      5-min Rain = 0
KPD2 120322Z 12003KT 23/12 A3011 RMK A01 T02320115  RH  048%=      5-min Rain = 0
KPD2 120323Z 11003KT 23/12 A3011 RMK A01 T02320116  RH  048%=      5-min Rain = 0
KPD2 120324Z 11003KT 23/12 A3011 RMK A01 T02320116  RH  048%=      5-min Rain = 0
KPD2 120325Z 12003KT 23/12 A3011 RMK A01 T02310115  RH  048%=      5-min Rain = 0
KPD2 120326Z 12003KT 23/12 A3011 RMK A01 T02310115  RH  048%=      5-min Rain = 0
KPD2 120327Z 13003KT 23/12 A3011 RMK A01 T02310115  RH  048%=      5-min Rain = 0
KPD2 120328Z 14003KT 23/12 A3011 RMK A01 T02310115  RH  048%=      5-min Rain = 0
KPD2 120329Z 14003KT 23/12 A3011 RMK A01 T02310115  RH  048%=      5-min Rain = 0
KPD2 120330Z 14003KT 23/12 A3011 RMK A01 T02310115  RH  048%=      5-min Rain = 0
KPD2 120331Z 14002KT 23/12 A3011 RMK A01 T02310116  RH  048%=      5-min Rain = 0
KPD2 120332Z 14002KT 23/12 A3011 RMK A01 T02310116  RH  048%=      5-min Rain = 0
KPD2 120333Z 14002KT 23/12 A3011 RMK A01 T02310115  RH  048%=      5-min Rain = 0
KPD2 120334Z 15002KT 23/12 A3011 RMK A01 T02310115  RH  048%=      5-min Rain = 0
KPD2 120335Z 14003KT 23/12 A3011 RMK A01 T02310115  RH  048%=      5-min Rain = 0
KPD2 120336Z 14003KT 23/12 A3012 RMK A01 T02310116  RH  048%=      5-min Rain = 0
KPD2 120337Z 14002KT 23/12 A3012 RMK A01 T02310116  RH  048%=      5-min Rain = 0
KPD2 120338Z 13002KT 23/12 A3012 RMK A01 T02310116  RH  048%=      5-min Rain = 0
KPD2 120339Z 13003KT 23/12 A3012 RMK A01 T02310116  RH  048%=      5-min Rain = 0
KPD2 120340Z 13002KT 23/12 A3012 RMK A01 T02300116  RH  048%=      5-min Rain = 0
KPD2 120341Z 13002KT 23/12 A3012 RMK A01 T02300116  RH  049%=      5-min Rain = 0
KPD2 120342Z 14003KT 23/12 A3012 RMK A01 T02290116  RH  049%=      5-min Rain = 0
KPD2 120343Z 13002KT 23/12 A3012 RMK A01 T02290116  RH  049%=      5-min Rain = 0
KPD2 120344Z 13003KT 23/12 A3012 RMK A01 T02280116  RH  049%=      5-min Rain = 0
KPD2 120345Z 13002KT 23/12 A3012 RMK A01 T02270116  RH  049%=      5-min Rain = 0
KPD2 120346Z 14002KT 23/12 A3012 RMK A01 T02270116  RH  049%=      5-min Rain = 0
KPD2 120347Z 14002KT 23/12 A3012 RMK A01 T02260116  RH  050%=      5-min Rain = 0
KPD2 120348Z 14003KT 23/12 A3012 RMK A01 T02260116  RH  050%=      5-min Rain = 0
KPD2 120349Z 15002KT 23/12 A3012 RMK A01 T02260116  RH  050%=      5-min Rain = 0
KPD2 120350Z 15003KT 23/12 A3012 RMK A01 T02250116  RH  050%=      5-min Rain = 0
KPD2 120351Z 15003KT 23/12 A3012 RMK A01 T02250116  RH  050%=      5-min Rain = 0
KPD2 120352Z 15003KT 23/12 A3012 RMK A01 T02250116  RH  050%=      5-min Rain = 0
KPD2 120353Z 14003KT 23/12 A3012 RMK A01 T02250116  RH  050%=      5-min Rain = 0
KPD2 120354Z 14002KT 23/12 A3012 RMK A01 T02250117  RH  050%=      5-min Rain = 0
KPD2 120355Z 13002KT 22/12 A3012 RMK A01 T02240117  RH  051%=      5-min Rain = 0
KPD2 120356Z 13003KT 22/12 A3012 RMK A01 T02240117  RH  051%=      5-min Rain = 0
KPD2 120357Z 13003KT 22/12 A3012 RMK A01 T02230116  RH  051%=      5-min Rain = 0
KPD2 120358Z 12003KT 22/12 A3012 RMK A01 T02220116  RH  051%=      5-min Rain = 0
KPD2 120359Z 12004KT 22/12 A3012 RMK A01 T02210116  RH  051%=      5-min Rain = 0
KPD2 120400Z 11003KT 22/12 A3012 RMK A01 T02210116  RH  051%=      5-min Rain = 0
KPD2 120401Z 10003KT 22/12 A3012 RMK A01 T02200116  RH  051%=      5-min Rain = 0
KPD2 120402Z 10004KT 22/12 A3012 RMK A01 T02210116  RH  051%=      5-min Rain = 0
KPD2 120403Z 10004KT 22/12 A3012 RMK A01 T02210116  RH  051%=      5-min Rain = 0
KPD2 120404Z 10003KT 22/12 A3012 RMK A01 T02220116  RH  051%=      5-min Rain = 0
KPD2 120405Z 11003KT 22/12 A3012 RMK A01 T02220116  RH  051%=      5-min Rain = 0
KPD2 120406Z 12002KT 22/12 A3012 RMK A01 T02230116  RH  051%=      5-min Rain = 0
KPD2 120407Z 11003KT 22/12 A3012 RMK A01 T02230116  RH  051%=      5-min Rain = 0
KPD2 120408Z 10004KT 22/12 A3012 RMK A01 T02230116  RH  050%=      5-min Rain = 0
KPD2 120409Z 14002KT 22/12 A3012 RMK A01 T02240116  RH  050%=      5-min Rain = 0
KPD2 120410Z 12002KT 23/12 A3012 RMK A01 T02250116  RH  050%=      5-min Rain = 0
KPD2 120411Z 15002KT 23/12 A3012 RMK A01 T02250116  RH  050%=      5-min Rain = 0
KPD2 120412Z 15002KT 23/12 A3012 RMK A01 T02250116  RH  050%=      5-min Rain = 0
KPD2 120413Z 14003KT 23/12 A3012 RMK A01 T02250116  RH  050%=      5-min Rain = 0
KPD2 120414Z 12003KT 23/12 A3012 RMK A01 T02250116  RH  050%=      5-min Rain = 0
KPD2 120415Z 14002KT 23/12 A3012 RMK A01 T02250116  RH  050%=      5-min Rain = 0
KPD2 120416Z 13002KT 23/12 A3012 RMK A01 T02250116  RH  050%=      5-min Rain = 0
KPD2 120417Z 12003KT 22/12 A3012 RMK A01 T02240116  RH  050%=      5-min Rain = 0
KPD2 120418Z 12004KT 22/12 A3012 RMK A01 T02240116  RH  050%=      5-min Rain = 0
KPD2 120419Z 12003KT 22/12 A3012 RMK A01 T02230116  RH  051%=      5-min Rain = 0
KPD2 120420Z 12004KT 22/12 A3012 RMK A01 T02220116  RH  051%=      5-min Rain = 0
KPD2 120421Z 13003KT 22/12 A3012 RMK A01 T02220116  RH  051%=      5-min Rain = 0
KPD2 120422Z 14003KT 22/12 A3012 RMK A01 T02210116  RH  051%=      5-min Rain = 0
KPD2 120423Z 14003KT 22/12 A3012 RMK A01 T02200116  RH  051%=      5-min Rain = 0
KPD2 120424Z 13003KT 22/12 A3012 RMK A01 T02200115  RH  052%=      5-min Rain = 0
KPD2 120425Z 13003KT 22/12 A3012 RMK A01 T02190116  RH  052%=      5-min Rain = 0
KPD2 120426Z 14003KT 22/12 A3012 RMK A01 T02190116  RH  052%=      5-min Rain = 0
KPD2 120427Z 14002KT 22/12 A3012 RMK A01 T02190117  RH  052%=      5-min Rain = 0
KPD2 120428Z 14002KT 22/12 A3013 RMK A01 T02180117  RH  053%=      5-min Rain = 0
KPD2 120429Z 13001KT 22/12 A3013 RMK A01 T02170119  RH  054%=      5-min Rain = 0
KPD2 120430Z 13002KT 22/12 A3013 RMK A01 T02160119  RH  054%=      5-min Rain = 0
KPD2 120431Z 12002KT 22/12 A3013 RMK A01 T02150117  RH  054%=      5-min Rain = 0
KPD2 120432Z 12003KT 21/12 A3013 RMK A01 T02130116  RH  054%=      5-min Rain = 0
KPD2 120433Z 12002KT 21/12 A3013 RMK A01 T02120115  RH  054%=      5-min Rain = 0
KPD2 120434Z 12003KT 21/12 A3013 RMK A01 T02120115  RH  054%=      5-min Rain = 0
KPD2 120435Z 11003KT 21/12 A3013 RMK A01 T02110116  RH  054%=      5-min Rain = 0
KPD2 120436Z 12003KT 21/12 A3013 RMK A01 T02100115  RH  055%=      5-min Rain = 0
KPD2 120437Z 11003KT 21/12 A3013 RMK A01 T02100115  RH  055%=      5-min Rain = 0
KPD2 120438Z 11003KT 21/12 A3013 RMK A01 T02090116  RH  055%=      5-min Rain = 0
KPD2 120439Z 11003KT 21/12 A3013 RMK A01 T02090115  RH  055%=      5-min Rain = 0
KPD2 120440Z 11002KT 21/12 A3013 RMK A01 T02090116  RH  055%=      5-min Rain = 0
KPD2 120441Z 11002KT 21/12 A3013 RMK A01 T02090115  RH  055%=      5-min Rain = 0
KPD2 120442Z 11003KT 21/12 A3013 RMK A01 T02090116  RH  055%=      5-min Rain = 0
KPD2 120443Z 12002KT 21/12 A3013 RMK A01 T02080116  RH  056%=      5-min Rain = 0
KPD2 120444Z 11002KT 21/12 A3013 RMK A01 T02080117  RH  056%=      5-min Rain = 0
KPD2 120445Z 12002KT 21/12 A3013 RMK A01 T02070117  RH  056%=      5-min Rain = 0
KPD2 120446Z 12003KT 21/12 A3013 RMK A01 T02060117  RH  057%=      5-min Rain = 0
KPD2 120447Z 12002KT 21/12 A3013 RMK A01 T02050117  RH  057%=      5-min Rain = 0
KPD2 120448Z 12002KT 21/12 A3013 RMK A01 T02050117  RH  057%=      5-min Rain = 0
KPD2 120449Z 13002KT 20/12 A3013 RMK A01 T02040117  RH  057%=      5-min Rain = 0
KPD2 120450Z 12002KT 20/12 A3013 RMK A01 T02030117  RH  057%=      5-min Rain = 0
KPD2 120451Z 13001KT 20/12 A3013 RMK A01 T02030117  RH  058%=      5-min Rain = 0
KPD2 120452Z 13001KT 20/12 A3013 RMK A01 T02020117  RH  058%=      5-min Rain = 0
KPD2 120453Z 13001KT 20/12 A3012 RMK A01 T02010117  RH  058%=      5-min Rain = 0
KPD2 120454Z 00000KT 20/12 A3012 RMK A01 T02000116  RH  059%=      5-min Rain = 0
KPD2 120455Z 00000KT 20/12 A3012 RMK A01 T01990118  RH  060%=      5-min Rain = 0
KPD2 120456Z 25000KT 20/12 A3012 RMK A01 T01970118  RH  060%=      5-min Rain = 0
KPD2 120457Z 25001KT 20/12 A3012 RMK A01 T01960118  RH  060%=      5-min Rain = 0
KPD2 120458Z 00000KT 20/12 A3012 RMK A01 T01950118  RH  061%=      5-min Rain = 0
KPD2 120459Z 00000KT 19/12 A3012 RMK A01 T01940118  RH  061%=      5-min Rain = 0

Page generated in 0.1516 seconds.